<?xml version="1.0" encoding="UTF-8" standalone="no" ?>
<gpx xmlns="http://www.topografix.com/GPX/1/1" xmlns:xsi="http://www.w3.org/2001/XMLSchema-instance" xsi:schemaLocation="http://www.topografix.com/GPX/1/1 http://www.topografix.com/GPX/1/1/gpx.xsd" version="1.1" creator="VisuGPX - https://www.visugpx.com">
  <metadata>
    <name>83-DA-Sillans</name>
    <desc><![CDATA[83-DA-Sillans la Cascade
2026-05-17-DMJJ]]></desc>
  </metadata>
  <trk>
    <name><![CDATA[2026-05-17-DA-Sillans]]></name>
    <extensions>
      <line xmlns="http://www.topografix.com/GPX/gpx_style/0/2">
        <width>4</width>
      </line>
    </extensions>
    <trkseg>
      <trkpt lat="43.54032" lon="6.19159">
        <ele>373.7</ele>
        <time>2026-05-17T08:12:49.000Z</time>
      </trkpt>
      <trkpt lat="43.54032" lon="6.19159">
        <ele>373.8</ele>
        <time>2026-05-17T08:12:50.000Z</time>
      </trkpt>
      <trkpt lat="43.54032" lon="6.1916">
        <ele>373.7</ele>
        <time>2026-05-17T08:13:09.000Z</time>
      </trkpt>
      <trkpt lat="43.54032" lon="6.19159">
        <ele>373.4</ele>
        <time>2026-05-17T08:15:01.000Z</time>
      </trkpt>
      <trkpt lat="43.54041" lon="6.19156">
        <ele>373.3</ele>
        <time>2026-05-17T08:16:47.000Z</time>
      </trkpt>
      <trkpt lat="43.54043" lon="6.19154">
        <ele>373.3</ele>
        <time>2026-05-17T08:17:10.000Z</time>
      </trkpt>
      <trkpt lat="43.54045" lon="6.19146">
        <ele>373.5</ele>
        <time>2026-05-17T08:19:56.000Z</time>
      </trkpt>
      <trkpt lat="43.54052" lon="6.19137">
        <ele>373.6</ele>
        <time>2026-05-17T08:20:18.000Z</time>
      </trkpt>
      <trkpt lat="43.54059" lon="6.19128">
        <ele>373.7</ele>
        <time>2026-05-17T08:20:40.000Z</time>
      </trkpt>
      <trkpt lat="43.54067" lon="6.19121">
        <ele>374</ele>
        <time>2026-05-17T08:20:56.000Z</time>
      </trkpt>
      <trkpt lat="43.54069" lon="6.19117">
        <ele>374.5</ele>
        <time>2026-05-17T08:21:24.000Z</time>
      </trkpt>
      <trkpt lat="43.54065" lon="6.19112">
        <ele>374.6</ele>
        <time>2026-05-17T08:22:08.000Z</time>
      </trkpt>
      <trkpt lat="43.54066" lon="6.19111">
        <ele>374.7</ele>
        <time>2026-05-17T08:22:19.000Z</time>
      </trkpt>
      <trkpt lat="43.54067" lon="6.1911">
        <ele>374.7</ele>
        <time>2026-05-17T08:22:22.000Z</time>
      </trkpt>
      <trkpt lat="43.54076" lon="6.19108">
        <ele>374.7</ele>
        <time>2026-05-17T08:22:42.000Z</time>
      </trkpt>
      <trkpt lat="43.54085" lon="6.19101">
        <ele>374.8</ele>
        <time>2026-05-17T08:22:51.000Z</time>
      </trkpt>
      <trkpt lat="43.54093" lon="6.19096">
        <ele>374.9</ele>
        <time>2026-05-17T08:23:05.000Z</time>
      </trkpt>
      <trkpt lat="43.54101" lon="6.19089">
        <ele>375.1</ele>
        <time>2026-05-17T08:23:17.000Z</time>
      </trkpt>
      <trkpt lat="43.54109" lon="6.19082">
        <ele>375.6</ele>
        <time>2026-05-17T08:23:27.000Z</time>
      </trkpt>
      <trkpt lat="43.54117" lon="6.19076">
        <ele>376.2</ele>
        <time>2026-05-17T08:23:40.000Z</time>
      </trkpt>
      <trkpt lat="43.54126" lon="6.19069">
        <ele>376.8</ele>
        <time>2026-05-17T08:23:54.000Z</time>
      </trkpt>
      <trkpt lat="43.54133" lon="6.19061">
        <ele>377.3</ele>
        <time>2026-05-17T08:24:03.000Z</time>
      </trkpt>
      <trkpt lat="43.5414" lon="6.19052">
        <ele>378.1</ele>
        <time>2026-05-17T08:24:13.000Z</time>
      </trkpt>
      <trkpt lat="43.54147" lon="6.19044">
        <ele>379.2</ele>
        <time>2026-05-17T08:24:24.000Z</time>
      </trkpt>
      <trkpt lat="43.54154" lon="6.19036">
        <ele>379.7</ele>
        <time>2026-05-17T08:24:35.000Z</time>
      </trkpt>
      <trkpt lat="43.54161" lon="6.19026">
        <ele>380.1</ele>
        <time>2026-05-17T08:24:48.000Z</time>
      </trkpt>
      <trkpt lat="43.54169" lon="6.1902">
        <ele>380.4</ele>
        <time>2026-05-17T08:25:00.000Z</time>
      </trkpt>
      <trkpt lat="43.54177" lon="6.19012">
        <ele>380.8</ele>
        <time>2026-05-17T08:25:12.000Z</time>
      </trkpt>
      <trkpt lat="43.54185" lon="6.19005">
        <ele>381.3</ele>
        <time>2026-05-17T08:25:23.000Z</time>
      </trkpt>
      <trkpt lat="43.54193" lon="6.18999">
        <ele>381.9</ele>
        <time>2026-05-17T08:25:35.000Z</time>
      </trkpt>
      <trkpt lat="43.54201" lon="6.18991">
        <ele>382.3</ele>
        <time>2026-05-17T08:25:47.000Z</time>
      </trkpt>
      <trkpt lat="43.54208" lon="6.18982">
        <ele>382.7</ele>
        <time>2026-05-17T08:25:59.000Z</time>
      </trkpt>
      <trkpt lat="43.54216" lon="6.18976">
        <ele>382.9</ele>
        <time>2026-05-17T08:26:10.000Z</time>
      </trkpt>
      <trkpt lat="43.54224" lon="6.1897">
        <ele>383.1</ele>
        <time>2026-05-17T08:26:21.000Z</time>
      </trkpt>
      <trkpt lat="43.54233" lon="6.18967">
        <ele>383.2</ele>
        <time>2026-05-17T08:26:32.000Z</time>
      </trkpt>
      <trkpt lat="43.5424" lon="6.18958">
        <ele>383.2</ele>
        <time>2026-05-17T08:26:42.000Z</time>
      </trkpt>
      <trkpt lat="43.54249" lon="6.18953">
        <ele>383.2</ele>
        <time>2026-05-17T08:26:53.000Z</time>
      </trkpt>
      <trkpt lat="43.54257" lon="6.18948">
        <ele>383.1</ele>
        <time>2026-05-17T08:27:03.000Z</time>
      </trkpt>
      <trkpt lat="43.54265" lon="6.18943">
        <ele>382.9</ele>
        <time>2026-05-17T08:27:13.000Z</time>
      </trkpt>
      <trkpt lat="43.54274" lon="6.18937">
        <ele>382.7</ele>
        <time>2026-05-17T08:27:24.000Z</time>
      </trkpt>
      <trkpt lat="43.54282" lon="6.1893">
        <ele>382.6</ele>
        <time>2026-05-17T08:27:35.000Z</time>
      </trkpt>
      <trkpt lat="43.5429" lon="6.18924">
        <ele>382.4</ele>
        <time>2026-05-17T08:27:46.000Z</time>
      </trkpt>
      <trkpt lat="43.54299" lon="6.18917">
        <ele>382.3</ele>
        <time>2026-05-17T08:27:58.000Z</time>
      </trkpt>
      <trkpt lat="43.54307" lon="6.18912">
        <ele>382.3</ele>
        <time>2026-05-17T08:28:08.000Z</time>
      </trkpt>
      <trkpt lat="43.54316" lon="6.18906">
        <ele>382.2</ele>
        <time>2026-05-17T08:28:20.000Z</time>
      </trkpt>
      <trkpt lat="43.54324" lon="6.18901">
        <ele>382.1</ele>
        <time>2026-05-17T08:28:30.000Z</time>
      </trkpt>
      <trkpt lat="43.54333" lon="6.18895">
        <ele>382.1</ele>
        <time>2026-05-17T08:28:40.000Z</time>
      </trkpt>
      <trkpt lat="43.54341" lon="6.1889">
        <ele>381.9</ele>
        <time>2026-05-17T08:28:50.000Z</time>
      </trkpt>
      <trkpt lat="43.5435" lon="6.18886">
        <ele>381.2</ele>
        <time>2026-05-17T08:29:02.000Z</time>
      </trkpt>
      <trkpt lat="43.54358" lon="6.18881">
        <ele>380.4</ele>
        <time>2026-05-17T08:29:16.000Z</time>
      </trkpt>
      <trkpt lat="43.54366" lon="6.18874">
        <ele>380</ele>
        <time>2026-05-17T08:29:29.000Z</time>
      </trkpt>
      <trkpt lat="43.54375" lon="6.18869">
        <ele>379.7</ele>
        <time>2026-05-17T08:29:39.000Z</time>
      </trkpt>
      <trkpt lat="43.54384" lon="6.18863">
        <ele>379.5</ele>
        <time>2026-05-17T08:29:49.000Z</time>
      </trkpt>
      <trkpt lat="43.54392" lon="6.18858">
        <ele>379.3</ele>
        <time>2026-05-17T08:29:59.000Z</time>
      </trkpt>
      <trkpt lat="43.54401" lon="6.18851">
        <ele>379.2</ele>
        <time>2026-05-17T08:30:09.000Z</time>
      </trkpt>
      <trkpt lat="43.54409" lon="6.18844">
        <ele>379.2</ele>
        <time>2026-05-17T08:30:20.000Z</time>
      </trkpt>
      <trkpt lat="43.54418" lon="6.18839">
        <ele>379.1</ele>
        <time>2026-05-17T08:30:30.000Z</time>
      </trkpt>
      <trkpt lat="43.54427" lon="6.18834">
        <ele>379.1</ele>
        <time>2026-05-17T08:30:43.000Z</time>
      </trkpt>
      <trkpt lat="43.54434" lon="6.18826">
        <ele>379.1</ele>
        <time>2026-05-17T08:30:53.000Z</time>
      </trkpt>
      <trkpt lat="43.54443" lon="6.18822">
        <ele>379.1</ele>
        <time>2026-05-17T08:31:05.000Z</time>
      </trkpt>
      <trkpt lat="43.54451" lon="6.18816">
        <ele>379.1</ele>
        <time>2026-05-17T08:31:15.000Z</time>
      </trkpt>
      <trkpt lat="43.54459" lon="6.1881">
        <ele>379.1</ele>
        <time>2026-05-17T08:31:24.000Z</time>
      </trkpt>
      <trkpt lat="43.54468" lon="6.18804">
        <ele>379.1</ele>
        <time>2026-05-17T08:31:34.000Z</time>
      </trkpt>
      <trkpt lat="43.54475" lon="6.18796">
        <ele>379.2</ele>
        <time>2026-05-17T08:31:43.000Z</time>
      </trkpt>
      <trkpt lat="43.54484" lon="6.18791">
        <ele>379.4</ele>
        <time>2026-05-17T08:31:54.000Z</time>
      </trkpt>
      <trkpt lat="43.54493" lon="6.18784">
        <ele>379.8</ele>
        <time>2026-05-17T08:32:04.000Z</time>
      </trkpt>
      <trkpt lat="43.54501" lon="6.18778">
        <ele>380.5</ele>
        <time>2026-05-17T08:32:14.000Z</time>
      </trkpt>
      <trkpt lat="43.54509" lon="6.18771">
        <ele>381.1</ele>
        <time>2026-05-17T08:32:24.000Z</time>
      </trkpt>
      <trkpt lat="43.54517" lon="6.18765">
        <ele>381.5</ele>
        <time>2026-05-17T08:32:33.000Z</time>
      </trkpt>
      <trkpt lat="43.54526" lon="6.18764">
        <ele>381.8</ele>
        <time>2026-05-17T08:32:42.000Z</time>
      </trkpt>
      <trkpt lat="43.54536" lon="6.1876">
        <ele>382</ele>
        <time>2026-05-17T08:32:52.000Z</time>
      </trkpt>
      <trkpt lat="43.54544" lon="6.18758">
        <ele>382.4</ele>
        <time>2026-05-17T08:33:18.000Z</time>
      </trkpt>
      <trkpt lat="43.54546" lon="6.18755">
        <ele>382.5</ele>
        <time>2026-05-17T08:33:45.000Z</time>
      </trkpt>
      <trkpt lat="43.54546" lon="6.18755">
        <ele>382.5</ele>
        <time>2026-05-17T08:33:50.000Z</time>
      </trkpt>
      <trkpt lat="43.54549" lon="6.18754">
        <ele>382.5</ele>
        <time>2026-05-17T08:35:36.000Z</time>
      </trkpt>
      <trkpt lat="43.54559" lon="6.18753">
        <ele>382.5</ele>
        <time>2026-05-17T08:35:49.000Z</time>
      </trkpt>
      <trkpt lat="43.54568" lon="6.18752">
        <ele>382.6</ele>
        <time>2026-05-17T08:36:03.000Z</time>
      </trkpt>
      <trkpt lat="43.54578" lon="6.18751">
        <ele>382.8</ele>
        <time>2026-05-17T08:36:14.000Z</time>
      </trkpt>
      <trkpt lat="43.54587" lon="6.1875">
        <ele>383.3</ele>
        <time>2026-05-17T08:36:25.000Z</time>
      </trkpt>
      <trkpt lat="43.54596" lon="6.18753">
        <ele>384.1</ele>
        <time>2026-05-17T08:36:36.000Z</time>
      </trkpt>
      <trkpt lat="43.54606" lon="6.18752">
        <ele>384.5</ele>
        <time>2026-05-17T08:36:47.000Z</time>
      </trkpt>
      <trkpt lat="43.54616" lon="6.18751">
        <ele>384.6</ele>
        <time>2026-05-17T08:36:58.000Z</time>
      </trkpt>
      <trkpt lat="43.54625" lon="6.18749">
        <ele>384.5</ele>
        <time>2026-05-17T08:37:07.000Z</time>
      </trkpt>
      <trkpt lat="43.54634" lon="6.18749">
        <ele>384.5</ele>
        <time>2026-05-17T08:37:16.000Z</time>
      </trkpt>
      <trkpt lat="43.54643" lon="6.18746">
        <ele>384.5</ele>
        <time>2026-05-17T08:37:26.000Z</time>
      </trkpt>
      <trkpt lat="43.54653" lon="6.18746">
        <ele>384.6</ele>
        <time>2026-05-17T08:37:36.000Z</time>
      </trkpt>
      <trkpt lat="43.54661" lon="6.18741">
        <ele>384.7</ele>
        <time>2026-05-17T08:37:46.000Z</time>
      </trkpt>
      <trkpt lat="43.54671" lon="6.1874">
        <ele>384.8</ele>
        <time>2026-05-17T08:37:56.000Z</time>
      </trkpt>
      <trkpt lat="43.5468" lon="6.18737">
        <ele>385.1</ele>
        <time>2026-05-17T08:38:07.000Z</time>
      </trkpt>
      <trkpt lat="43.5469" lon="6.18736">
        <ele>385.7</ele>
        <time>2026-05-17T08:38:18.000Z</time>
      </trkpt>
      <trkpt lat="43.54699" lon="6.18735">
        <ele>386.4</ele>
        <time>2026-05-17T08:38:28.000Z</time>
      </trkpt>
      <trkpt lat="43.54708" lon="6.18736">
        <ele>387.2</ele>
        <time>2026-05-17T08:38:39.000Z</time>
      </trkpt>
      <trkpt lat="43.54718" lon="6.18734">
        <ele>387.7</ele>
        <time>2026-05-17T08:38:49.000Z</time>
      </trkpt>
      <trkpt lat="43.54727" lon="6.18733">
        <ele>388.4</ele>
        <time>2026-05-17T08:39:05.000Z</time>
      </trkpt>
      <trkpt lat="43.54736" lon="6.18731">
        <ele>388.8</ele>
        <time>2026-05-17T08:39:15.000Z</time>
      </trkpt>
      <trkpt lat="43.54745" lon="6.18727">
        <ele>389.4</ele>
        <time>2026-05-17T08:39:25.000Z</time>
      </trkpt>
      <trkpt lat="43.54755" lon="6.18728">
        <ele>390.1</ele>
        <time>2026-05-17T08:39:35.000Z</time>
      </trkpt>
      <trkpt lat="43.54765" lon="6.1873">
        <ele>390.4</ele>
        <time>2026-05-17T08:39:44.000Z</time>
      </trkpt>
      <trkpt lat="43.54774" lon="6.18727">
        <ele>390.4</ele>
        <time>2026-05-17T08:39:52.000Z</time>
      </trkpt>
      <trkpt lat="43.54784" lon="6.18725">
        <ele>390.4</ele>
        <time>2026-05-17T08:40:01.000Z</time>
      </trkpt>
      <trkpt lat="43.54794" lon="6.18723">
        <ele>390.4</ele>
        <time>2026-05-17T08:40:10.000Z</time>
      </trkpt>
      <trkpt lat="43.54803" lon="6.18723">
        <ele>390.4</ele>
        <time>2026-05-17T08:40:19.000Z</time>
      </trkpt>
      <trkpt lat="43.54812" lon="6.1872">
        <ele>390.5</ele>
        <time>2026-05-17T08:40:29.000Z</time>
      </trkpt>
      <trkpt lat="43.54822" lon="6.1872">
        <ele>390.6</ele>
        <time>2026-05-17T08:40:37.000Z</time>
      </trkpt>
      <trkpt lat="43.54831" lon="6.18718">
        <ele>390.8</ele>
        <time>2026-05-17T08:40:46.000Z</time>
      </trkpt>
      <trkpt lat="43.5484" lon="6.18714">
        <ele>391</ele>
        <time>2026-05-17T08:40:54.000Z</time>
      </trkpt>
      <trkpt lat="43.54849" lon="6.18713">
        <ele>391.1</ele>
        <time>2026-05-17T08:41:03.000Z</time>
      </trkpt>
      <trkpt lat="43.54858" lon="6.18709">
        <ele>391</ele>
        <time>2026-05-17T08:41:14.000Z</time>
      </trkpt>
      <trkpt lat="43.54867" lon="6.18706">
        <ele>390.8</ele>
        <time>2026-05-17T08:41:23.000Z</time>
      </trkpt>
      <trkpt lat="43.54876" lon="6.187">
        <ele>390.6</ele>
        <time>2026-05-17T08:41:32.000Z</time>
      </trkpt>
      <trkpt lat="43.54886" lon="6.18696">
        <ele>390.5</ele>
        <time>2026-05-17T08:41:41.000Z</time>
      </trkpt>
      <trkpt lat="43.54895" lon="6.18692">
        <ele>390.5</ele>
        <time>2026-05-17T08:41:51.000Z</time>
      </trkpt>
      <trkpt lat="43.54904" lon="6.1869">
        <ele>390.6</ele>
        <time>2026-05-17T08:42:01.000Z</time>
      </trkpt>
      <trkpt lat="43.54913" lon="6.18686">
        <ele>390.8</ele>
        <time>2026-05-17T08:42:11.000Z</time>
      </trkpt>
      <trkpt lat="43.54915" lon="6.18681">
        <ele>391.5</ele>
        <time>2026-05-17T08:42:28.000Z</time>
      </trkpt>
      <trkpt lat="43.54919" lon="6.18679">
        <ele>391.5</ele>
        <time>2026-05-17T08:42:33.000Z</time>
      </trkpt>
      <trkpt lat="43.54928" lon="6.18676">
        <ele>391.6</ele>
        <time>2026-05-17T08:42:41.000Z</time>
      </trkpt>
      <trkpt lat="43.54937" lon="6.1867">
        <ele>391.7</ele>
        <time>2026-05-17T08:42:50.000Z</time>
      </trkpt>
      <trkpt lat="43.54945" lon="6.18663">
        <ele>392</ele>
        <time>2026-05-17T08:43:00.000Z</time>
      </trkpt>
      <trkpt lat="43.54954" lon="6.18657">
        <ele>392.4</ele>
        <time>2026-05-17T08:43:09.000Z</time>
      </trkpt>
      <trkpt lat="43.54963" lon="6.18652">
        <ele>392.5</ele>
        <time>2026-05-17T08:43:18.000Z</time>
      </trkpt>
      <trkpt lat="43.54972" lon="6.18647">
        <ele>392.5</ele>
        <time>2026-05-17T08:43:27.000Z</time>
      </trkpt>
      <trkpt lat="43.54981" lon="6.18643">
        <ele>392.5</ele>
        <time>2026-05-17T08:43:37.000Z</time>
      </trkpt>
      <trkpt lat="43.54989" lon="6.18638">
        <ele>392.5</ele>
        <time>2026-05-17T08:43:46.000Z</time>
      </trkpt>
      <trkpt lat="43.54998" lon="6.18632">
        <ele>392.5</ele>
        <time>2026-05-17T08:43:56.000Z</time>
      </trkpt>
      <trkpt lat="43.55007" lon="6.18625">
        <ele>392.5</ele>
        <time>2026-05-17T08:44:05.000Z</time>
      </trkpt>
      <trkpt lat="43.55015" lon="6.18618">
        <ele>392.5</ele>
        <time>2026-05-17T08:44:13.000Z</time>
      </trkpt>
      <trkpt lat="43.55023" lon="6.18611">
        <ele>392.5</ele>
        <time>2026-05-17T08:44:21.000Z</time>
      </trkpt>
      <trkpt lat="43.55031" lon="6.18604">
        <ele>392.6</ele>
        <time>2026-05-17T08:44:29.000Z</time>
      </trkpt>
      <trkpt lat="43.55039" lon="6.18598">
        <ele>392.6</ele>
        <time>2026-05-17T08:44:39.000Z</time>
      </trkpt>
      <trkpt lat="43.55047" lon="6.1859">
        <ele>392.7</ele>
        <time>2026-05-17T08:44:47.000Z</time>
      </trkpt>
      <trkpt lat="43.55056" lon="6.18585">
        <ele>392.8</ele>
        <time>2026-05-17T08:44:55.000Z</time>
      </trkpt>
      <trkpt lat="43.55065" lon="6.18579">
        <ele>392.9</ele>
        <time>2026-05-17T08:45:04.000Z</time>
      </trkpt>
      <trkpt lat="43.55072" lon="6.18572">
        <ele>393</ele>
        <time>2026-05-17T08:45:13.000Z</time>
      </trkpt>
      <trkpt lat="43.55081" lon="6.18568">
        <ele>393.2</ele>
        <time>2026-05-17T08:45:23.000Z</time>
      </trkpt>
      <trkpt lat="43.55089" lon="6.18561">
        <ele>393.2</ele>
        <time>2026-05-17T08:45:33.000Z</time>
      </trkpt>
      <trkpt lat="43.55097" lon="6.18555">
        <ele>393.2</ele>
        <time>2026-05-17T08:45:43.000Z</time>
      </trkpt>
      <trkpt lat="43.55106" lon="6.1855">
        <ele>393</ele>
        <time>2026-05-17T08:45:53.000Z</time>
      </trkpt>
      <trkpt lat="43.55115" lon="6.18545">
        <ele>392.3</ele>
        <time>2026-05-17T08:46:05.000Z</time>
      </trkpt>
      <trkpt lat="43.55124" lon="6.18542">
        <ele>390.5</ele>
        <time>2026-05-17T08:46:29.000Z</time>
      </trkpt>
      <trkpt lat="43.55133" lon="6.18543">
        <ele>390</ele>
        <time>2026-05-17T08:46:43.000Z</time>
      </trkpt>
      <trkpt lat="43.55142" lon="6.18541">
        <ele>389.3</ele>
        <time>2026-05-17T08:46:54.000Z</time>
      </trkpt>
      <trkpt lat="43.55151" lon="6.18539">
        <ele>388</ele>
        <time>2026-05-17T08:47:16.000Z</time>
      </trkpt>
      <trkpt lat="43.55152" lon="6.18539">
        <ele>387.9</ele>
        <time>2026-05-17T08:47:19.000Z</time>
      </trkpt>
      <trkpt lat="43.55153" lon="6.18534">
        <ele>387.6</ele>
        <time>2026-05-17T08:47:50.000Z</time>
      </trkpt>
      <trkpt lat="43.55153" lon="6.18534">
        <ele>387.5</ele>
        <time>2026-05-17T08:48:01.000Z</time>
      </trkpt>
      <trkpt lat="43.55154" lon="6.18539">
        <ele>387.4</ele>
        <time>2026-05-17T08:49:07.000Z</time>
      </trkpt>
      <trkpt lat="43.55154" lon="6.18539">
        <ele>387.4</ele>
        <time>2026-05-17T08:49:17.000Z</time>
      </trkpt>
      <trkpt lat="43.55155" lon="6.1854">
        <ele>387.4</ele>
        <time>2026-05-17T08:49:20.000Z</time>
      </trkpt>
      <trkpt lat="43.55164" lon="6.1854">
        <ele>387.3</ele>
        <time>2026-05-17T08:49:35.000Z</time>
      </trkpt>
      <trkpt lat="43.55174" lon="6.18538">
        <ele>387.1</ele>
        <time>2026-05-17T08:49:47.000Z</time>
      </trkpt>
      <trkpt lat="43.55184" lon="6.18538">
        <ele>386.3</ele>
        <time>2026-05-17T08:50:01.000Z</time>
      </trkpt>
      <trkpt lat="43.55193" lon="6.18538">
        <ele>385.6</ele>
        <time>2026-05-17T08:50:14.000Z</time>
      </trkpt>
      <trkpt lat="43.55202" lon="6.1854">
        <ele>384.5</ele>
        <time>2026-05-17T08:50:29.000Z</time>
      </trkpt>
      <trkpt lat="43.55212" lon="6.18541">
        <ele>383.6</ele>
        <time>2026-05-17T08:50:42.000Z</time>
      </trkpt>
      <trkpt lat="43.55221" lon="6.18538">
        <ele>383</ele>
        <time>2026-05-17T08:50:52.000Z</time>
      </trkpt>
      <trkpt lat="43.5523" lon="6.18538">
        <ele>382.6</ele>
        <time>2026-05-17T08:51:03.000Z</time>
      </trkpt>
      <trkpt lat="43.55239" lon="6.18534">
        <ele>382.1</ele>
        <time>2026-05-17T08:51:13.000Z</time>
      </trkpt>
      <trkpt lat="43.55249" lon="6.18529">
        <ele>381.8</ele>
        <time>2026-05-17T08:51:25.000Z</time>
      </trkpt>
      <trkpt lat="43.55257" lon="6.18524">
        <ele>381.6</ele>
        <time>2026-05-17T08:51:38.000Z</time>
      </trkpt>
      <trkpt lat="43.55266" lon="6.18522">
        <ele>381.6</ele>
        <time>2026-05-17T08:51:49.000Z</time>
      </trkpt>
      <trkpt lat="43.55276" lon="6.1852">
        <ele>381.5</ele>
        <time>2026-05-17T08:51:59.000Z</time>
      </trkpt>
      <trkpt lat="43.55285" lon="6.18516">
        <ele>381.5</ele>
        <time>2026-05-17T08:52:09.000Z</time>
      </trkpt>
      <trkpt lat="43.55292" lon="6.1851">
        <ele>381.5</ele>
        <time>2026-05-17T08:52:19.000Z</time>
      </trkpt>
      <trkpt lat="43.55301" lon="6.18505">
        <ele>381.5</ele>
        <time>2026-05-17T08:52:31.000Z</time>
      </trkpt>
      <trkpt lat="43.5531" lon="6.185">
        <ele>381.6</ele>
        <time>2026-05-17T08:52:42.000Z</time>
      </trkpt>
      <trkpt lat="43.55318" lon="6.18495">
        <ele>381.8</ele>
        <time>2026-05-17T08:52:53.000Z</time>
      </trkpt>
      <trkpt lat="43.55327" lon="6.1849">
        <ele>382.1</ele>
        <time>2026-05-17T08:53:06.000Z</time>
      </trkpt>
      <trkpt lat="43.55336" lon="6.18488">
        <ele>382.5</ele>
        <time>2026-05-17T08:53:19.000Z</time>
      </trkpt>
      <trkpt lat="43.55344" lon="6.18483">
        <ele>383.1</ele>
        <time>2026-05-17T08:53:31.000Z</time>
      </trkpt>
      <trkpt lat="43.55352" lon="6.18474">
        <ele>383.7</ele>
        <time>2026-05-17T08:53:41.000Z</time>
      </trkpt>
      <trkpt lat="43.5536" lon="6.18466">
        <ele>384.3</ele>
        <time>2026-05-17T08:53:54.000Z</time>
      </trkpt>
      <trkpt lat="43.55366" lon="6.18456">
        <ele>385.1</ele>
        <time>2026-05-17T08:54:06.000Z</time>
      </trkpt>
      <trkpt lat="43.55373" lon="6.18446">
        <ele>385.9</ele>
        <time>2026-05-17T08:54:19.000Z</time>
      </trkpt>
      <trkpt lat="43.55379" lon="6.18436">
        <ele>386.8</ele>
        <time>2026-05-17T08:54:32.000Z</time>
      </trkpt>
      <trkpt lat="43.55385" lon="6.18428">
        <ele>387.6</ele>
        <time>2026-05-17T08:54:43.000Z</time>
      </trkpt>
      <trkpt lat="43.55392" lon="6.18419">
        <ele>388.3</ele>
        <time>2026-05-17T08:54:56.000Z</time>
      </trkpt>
      <trkpt lat="43.55398" lon="6.18409">
        <ele>388.7</ele>
        <time>2026-05-17T08:55:06.000Z</time>
      </trkpt>
      <trkpt lat="43.55404" lon="6.184">
        <ele>389.1</ele>
        <time>2026-05-17T08:55:17.000Z</time>
      </trkpt>
      <trkpt lat="43.55411" lon="6.18391">
        <ele>389.6</ele>
        <time>2026-05-17T08:55:30.000Z</time>
      </trkpt>
      <trkpt lat="43.55417" lon="6.1838">
        <ele>389.9</ele>
        <time>2026-05-17T08:55:42.000Z</time>
      </trkpt>
      <trkpt lat="43.55422" lon="6.1837">
        <ele>390.2</ele>
        <time>2026-05-17T08:55:54.000Z</time>
      </trkpt>
      <trkpt lat="43.55427" lon="6.18357">
        <ele>390.3</ele>
        <time>2026-05-17T08:56:03.000Z</time>
      </trkpt>
      <trkpt lat="43.55433" lon="6.18347">
        <ele>390.9</ele>
        <time>2026-05-17T08:56:15.000Z</time>
      </trkpt>
      <trkpt lat="43.55436" lon="6.18335">
        <ele>391.5</ele>
        <time>2026-05-17T08:56:25.000Z</time>
      </trkpt>
      <trkpt lat="43.55441" lon="6.18324">
        <ele>392.1</ele>
        <time>2026-05-17T08:56:34.000Z</time>
      </trkpt>
      <trkpt lat="43.55445" lon="6.18312">
        <ele>392.7</ele>
        <time>2026-05-17T08:56:45.000Z</time>
      </trkpt>
      <trkpt lat="43.55448" lon="6.183">
        <ele>393.3</ele>
        <time>2026-05-17T08:56:55.000Z</time>
      </trkpt>
      <trkpt lat="43.55451" lon="6.18287">
        <ele>393.9</ele>
        <time>2026-05-17T08:57:07.000Z</time>
      </trkpt>
      <trkpt lat="43.55455" lon="6.18275">
        <ele>394.5</ele>
        <time>2026-05-17T08:57:19.000Z</time>
      </trkpt>
      <trkpt lat="43.55459" lon="6.18263">
        <ele>394.9</ele>
        <time>2026-05-17T08:57:28.000Z</time>
      </trkpt>
      <trkpt lat="43.55462" lon="6.18251">
        <ele>395.5</ele>
        <time>2026-05-17T08:57:38.000Z</time>
      </trkpt>
      <trkpt lat="43.55464" lon="6.18239">
        <ele>396.1</ele>
        <time>2026-05-17T08:57:49.000Z</time>
      </trkpt>
      <trkpt lat="43.55469" lon="6.18227">
        <ele>396.6</ele>
        <time>2026-05-17T08:58:01.000Z</time>
      </trkpt>
      <trkpt lat="43.55474" lon="6.18216">
        <ele>396.9</ele>
        <time>2026-05-17T08:58:11.000Z</time>
      </trkpt>
      <trkpt lat="43.55479" lon="6.18206">
        <ele>397.5</ele>
        <time>2026-05-17T08:58:30.000Z</time>
      </trkpt>
      <trkpt lat="43.55485" lon="6.18196">
        <ele>397.8</ele>
        <time>2026-05-17T08:58:42.000Z</time>
      </trkpt>
      <trkpt lat="43.55492" lon="6.18186">
        <ele>398</ele>
        <time>2026-05-17T08:58:53.000Z</time>
      </trkpt>
      <trkpt lat="43.55499" lon="6.18177">
        <ele>398.4</ele>
        <time>2026-05-17T08:59:04.000Z</time>
      </trkpt>
      <trkpt lat="43.55505" lon="6.18168">
        <ele>398.6</ele>
        <time>2026-05-17T08:59:13.000Z</time>
      </trkpt>
      <trkpt lat="43.55512" lon="6.18158">
        <ele>398.9</ele>
        <time>2026-05-17T08:59:23.000Z</time>
      </trkpt>
      <trkpt lat="43.55519" lon="6.1815">
        <ele>399.1</ele>
        <time>2026-05-17T08:59:31.000Z</time>
      </trkpt>
      <trkpt lat="43.55526" lon="6.1814">
        <ele>399.4</ele>
        <time>2026-05-17T08:59:41.000Z</time>
      </trkpt>
      <trkpt lat="43.55534" lon="6.18132">
        <ele>399.6</ele>
        <time>2026-05-17T08:59:50.000Z</time>
      </trkpt>
      <trkpt lat="43.55542" lon="6.18125">
        <ele>399.9</ele>
        <time>2026-05-17T09:00:01.000Z</time>
      </trkpt>
      <trkpt lat="43.5555" lon="6.18119">
        <ele>400.2</ele>
        <time>2026-05-17T09:00:10.000Z</time>
      </trkpt>
      <trkpt lat="43.55558" lon="6.18112">
        <ele>400.5</ele>
        <time>2026-05-17T09:00:19.000Z</time>
      </trkpt>
      <trkpt lat="43.55566" lon="6.18106">
        <ele>400.7</ele>
        <time>2026-05-17T09:00:28.000Z</time>
      </trkpt>
      <trkpt lat="43.55575" lon="6.18101">
        <ele>400.9</ele>
        <time>2026-05-17T09:00:40.000Z</time>
      </trkpt>
      <trkpt lat="43.55583" lon="6.18096">
        <ele>401.1</ele>
        <time>2026-05-17T09:00:49.000Z</time>
      </trkpt>
      <trkpt lat="43.55592" lon="6.18089">
        <ele>401.5</ele>
        <time>2026-05-17T09:00:59.000Z</time>
      </trkpt>
      <trkpt lat="43.55599" lon="6.18081">
        <ele>401.7</ele>
        <time>2026-05-17T09:01:09.000Z</time>
      </trkpt>
      <trkpt lat="43.55608" lon="6.18075">
        <ele>402</ele>
        <time>2026-05-17T09:01:21.000Z</time>
      </trkpt>
      <trkpt lat="43.55617" lon="6.18068">
        <ele>402.4</ele>
        <time>2026-05-17T09:01:33.000Z</time>
      </trkpt>
      <trkpt lat="43.55625" lon="6.18064">
        <ele>403</ele>
        <time>2026-05-17T09:01:43.000Z</time>
      </trkpt>
      <trkpt lat="43.55628" lon="6.18063">
        <ele>403.8</ele>
        <time>2026-05-17T09:02:14.000Z</time>
      </trkpt>
      <trkpt lat="43.55628" lon="6.18062">
        <ele>403.9</ele>
        <time>2026-05-17T09:02:30.000Z</time>
      </trkpt>
      <trkpt lat="43.55629" lon="6.18061">
        <ele>403.9</ele>
        <time>2026-05-17T09:02:42.000Z</time>
      </trkpt>
      <trkpt lat="43.55629" lon="6.1806">
        <ele>403.9</ele>
        <time>2026-05-17T09:02:50.000Z</time>
      </trkpt>
      <trkpt lat="43.55628" lon="6.18057">
        <ele>404</ele>
        <time>2026-05-17T09:03:40.000Z</time>
      </trkpt>
      <trkpt lat="43.55628" lon="6.18056">
        <ele>404</ele>
        <time>2026-05-17T09:03:50.000Z</time>
      </trkpt>
      <trkpt lat="43.55634" lon="6.18056">
        <ele>404</ele>
        <time>2026-05-17T09:04:13.000Z</time>
      </trkpt>
      <trkpt lat="43.55636" lon="6.18057">
        <ele>404.1</ele>
        <time>2026-05-17T09:05:25.000Z</time>
      </trkpt>
      <trkpt lat="43.55636" lon="6.18057">
        <ele>404.1</ele>
        <time>2026-05-17T09:05:37.000Z</time>
      </trkpt>
      <trkpt lat="43.55636" lon="6.18056">
        <ele>404.1</ele>
        <time>2026-05-17T09:09:09.000Z</time>
      </trkpt>
      <trkpt lat="43.55645" lon="6.18055">
        <ele>404.1</ele>
        <time>2026-05-17T09:09:23.000Z</time>
      </trkpt>
      <trkpt lat="43.55654" lon="6.18051">
        <ele>404.1</ele>
        <time>2026-05-17T09:09:41.000Z</time>
      </trkpt>
      <trkpt lat="43.55662" lon="6.18044">
        <ele>404.1</ele>
        <time>2026-05-17T09:10:01.000Z</time>
      </trkpt>
      <trkpt lat="43.55671" lon="6.18041">
        <ele>404.2</ele>
        <time>2026-05-17T09:10:14.000Z</time>
      </trkpt>
      <trkpt lat="43.5568" lon="6.18037">
        <ele>404.3</ele>
        <time>2026-05-17T09:10:26.000Z</time>
      </trkpt>
      <trkpt lat="43.55689" lon="6.18032">
        <ele>404.5</ele>
        <time>2026-05-17T09:10:39.000Z</time>
      </trkpt>
      <trkpt lat="43.55697" lon="6.18027">
        <ele>404.8</ele>
        <time>2026-05-17T09:10:50.000Z</time>
      </trkpt>
      <trkpt lat="43.55707" lon="6.18023">
        <ele>405.1</ele>
        <time>2026-05-17T09:11:01.000Z</time>
      </trkpt>
      <trkpt lat="43.55715" lon="6.18018">
        <ele>405.3</ele>
        <time>2026-05-17T09:11:12.000Z</time>
      </trkpt>
      <trkpt lat="43.55724" lon="6.18014">
        <ele>405.4</ele>
        <time>2026-05-17T09:11:24.000Z</time>
      </trkpt>
      <trkpt lat="43.55733" lon="6.18011">
        <ele>405.7</ele>
        <time>2026-05-17T09:11:37.000Z</time>
      </trkpt>
      <trkpt lat="43.55742" lon="6.18006">
        <ele>406</ele>
        <time>2026-05-17T09:11:47.000Z</time>
      </trkpt>
      <trkpt lat="43.55751" lon="6.18">
        <ele>406.5</ele>
        <time>2026-05-17T09:12:04.000Z</time>
      </trkpt>
      <trkpt lat="43.55759" lon="6.17993">
        <ele>406.8</ele>
        <time>2026-05-17T09:12:15.000Z</time>
      </trkpt>
      <trkpt lat="43.55768" lon="6.17988">
        <ele>407.7</ele>
        <time>2026-05-17T09:12:49.000Z</time>
      </trkpt>
      <trkpt lat="43.55775" lon="6.17996">
        <ele>408.1</ele>
        <time>2026-05-17T09:13:06.000Z</time>
      </trkpt>
      <trkpt lat="43.55779" lon="6.18008">
        <ele>408.6</ele>
        <time>2026-05-17T09:13:32.000Z</time>
      </trkpt>
      <trkpt lat="43.5578" lon="6.1802">
        <ele>409</ele>
        <time>2026-05-17T09:14:03.000Z</time>
      </trkpt>
      <trkpt lat="43.55782" lon="6.18034">
        <ele>409.2</ele>
        <time>2026-05-17T09:14:20.000Z</time>
      </trkpt>
      <trkpt lat="43.55784" lon="6.18046">
        <ele>409.4</ele>
        <time>2026-05-17T09:14:33.000Z</time>
      </trkpt>
      <trkpt lat="43.55776" lon="6.18053">
        <ele>411.1</ele>
        <time>2026-05-17T09:15:02.000Z</time>
      </trkpt>
      <trkpt lat="43.55777" lon="6.18055">
        <ele>411.7</ele>
        <time>2026-05-17T09:15:17.000Z</time>
      </trkpt>
      <trkpt lat="43.55777" lon="6.18057">
        <ele>412</ele>
        <time>2026-05-17T09:15:36.000Z</time>
      </trkpt>
      <trkpt lat="43.55768" lon="6.18056">
        <ele>412.2</ele>
        <time>2026-05-17T09:15:54.000Z</time>
      </trkpt>
      <trkpt lat="43.55758" lon="6.18057">
        <ele>412.5</ele>
        <time>2026-05-17T09:16:08.000Z</time>
      </trkpt>
      <trkpt lat="43.55749" lon="6.18059">
        <ele>413.1</ele>
        <time>2026-05-17T09:16:25.000Z</time>
      </trkpt>
      <trkpt lat="43.5574" lon="6.18061">
        <ele>413.7</ele>
        <time>2026-05-17T09:16:41.000Z</time>
      </trkpt>
      <trkpt lat="43.55731" lon="6.18064">
        <ele>414.5</ele>
        <time>2026-05-17T09:16:59.000Z</time>
      </trkpt>
      <trkpt lat="43.55722" lon="6.18069">
        <ele>415.6</ele>
        <time>2026-05-17T09:17:15.000Z</time>
      </trkpt>
      <trkpt lat="43.55717" lon="6.1808">
        <ele>416.6</ele>
        <time>2026-05-17T09:17:28.000Z</time>
      </trkpt>
      <trkpt lat="43.55711" lon="6.18089">
        <ele>418.6</ele>
        <time>2026-05-17T09:17:55.000Z</time>
      </trkpt>
      <trkpt lat="43.55711" lon="6.18089">
        <ele>418.7</ele>
        <time>2026-05-17T09:18:00.000Z</time>
      </trkpt>
      <trkpt lat="43.55708" lon="6.18092">
        <ele>418.8</ele>
        <time>2026-05-17T09:18:10.000Z</time>
      </trkpt>
      <trkpt lat="43.557" lon="6.18099">
        <ele>419.5</ele>
        <time>2026-05-17T09:18:30.000Z</time>
      </trkpt>
      <trkpt lat="43.55692" lon="6.18106">
        <ele>420.8</ele>
        <time>2026-05-17T09:18:51.000Z</time>
      </trkpt>
      <trkpt lat="43.55686" lon="6.18115">
        <ele>422.3</ele>
        <time>2026-05-17T09:19:10.000Z</time>
      </trkpt>
      <trkpt lat="43.55683" lon="6.18128">
        <ele>424</ele>
        <time>2026-05-17T09:19:29.000Z</time>
      </trkpt>
      <trkpt lat="43.55689" lon="6.18138">
        <ele>425.9</ele>
        <time>2026-05-17T09:19:50.000Z</time>
      </trkpt>
      <trkpt lat="43.55696" lon="6.18146">
        <ele>427.2</ele>
        <time>2026-05-17T09:20:05.000Z</time>
      </trkpt>
      <trkpt lat="43.55701" lon="6.18156">
        <ele>428.9</ele>
        <time>2026-05-17T09:20:27.000Z</time>
      </trkpt>
      <trkpt lat="43.55709" lon="6.18164">
        <ele>430.4</ele>
        <time>2026-05-17T09:20:45.000Z</time>
      </trkpt>
      <trkpt lat="43.55717" lon="6.18168">
        <ele>431.4</ele>
        <time>2026-05-17T09:20:59.000Z</time>
      </trkpt>
      <trkpt lat="43.55726" lon="6.18173">
        <ele>431.7</ele>
        <time>2026-05-17T09:21:17.000Z</time>
      </trkpt>
      <trkpt lat="43.5573" lon="6.18184">
        <ele>432</ele>
        <time>2026-05-17T09:21:30.000Z</time>
      </trkpt>
      <trkpt lat="43.55736" lon="6.18194">
        <ele>432.2</ele>
        <time>2026-05-17T09:21:44.000Z</time>
      </trkpt>
      <trkpt lat="43.55738" lon="6.18207">
        <ele>432.5</ele>
        <time>2026-05-17T09:21:56.000Z</time>
      </trkpt>
      <trkpt lat="43.55734" lon="6.18219">
        <ele>433</ele>
        <time>2026-05-17T09:22:10.000Z</time>
      </trkpt>
      <trkpt lat="43.55731" lon="6.18231">
        <ele>433.5</ele>
        <time>2026-05-17T09:22:27.000Z</time>
      </trkpt>
      <trkpt lat="43.55725" lon="6.18241">
        <ele>433.9</ele>
        <time>2026-05-17T09:22:39.000Z</time>
      </trkpt>
      <trkpt lat="43.55724" lon="6.18255">
        <ele>434.1</ele>
        <time>2026-05-17T09:22:49.000Z</time>
      </trkpt>
      <trkpt lat="43.55719" lon="6.18266">
        <ele>434.5</ele>
        <time>2026-05-17T09:23:04.000Z</time>
      </trkpt>
      <trkpt lat="43.55713" lon="6.18277">
        <ele>434.8</ele>
        <time>2026-05-17T09:23:14.000Z</time>
      </trkpt>
      <trkpt lat="43.55709" lon="6.18288">
        <ele>434.9</ele>
        <time>2026-05-17T09:23:26.000Z</time>
      </trkpt>
      <trkpt lat="43.55704" lon="6.18299">
        <ele>434.9</ele>
        <time>2026-05-17T09:23:37.000Z</time>
      </trkpt>
      <trkpt lat="43.55701" lon="6.18312">
        <ele>435.1</ele>
        <time>2026-05-17T09:23:50.000Z</time>
      </trkpt>
      <trkpt lat="43.55697" lon="6.18325">
        <ele>435.1</ele>
        <time>2026-05-17T09:24:01.000Z</time>
      </trkpt>
      <trkpt lat="43.55697" lon="6.18338">
        <ele>435.2</ele>
        <time>2026-05-17T09:24:14.000Z</time>
      </trkpt>
      <trkpt lat="43.55696" lon="6.18352">
        <ele>435.3</ele>
        <time>2026-05-17T09:24:26.000Z</time>
      </trkpt>
      <trkpt lat="43.55696" lon="6.18364">
        <ele>435.5</ele>
        <time>2026-05-17T09:24:37.000Z</time>
      </trkpt>
      <trkpt lat="43.55696" lon="6.18377">
        <ele>435.8</ele>
        <time>2026-05-17T09:24:51.000Z</time>
      </trkpt>
      <trkpt lat="43.55694" lon="6.18389">
        <ele>436</ele>
        <time>2026-05-17T09:25:03.000Z</time>
      </trkpt>
      <trkpt lat="43.55697" lon="6.18401">
        <ele>436.4</ele>
        <time>2026-05-17T09:25:14.000Z</time>
      </trkpt>
      <trkpt lat="43.55693" lon="6.18413">
        <ele>436.8</ele>
        <time>2026-05-17T09:25:25.000Z</time>
      </trkpt>
      <trkpt lat="43.55694" lon="6.18426">
        <ele>437.2</ele>
        <time>2026-05-17T09:25:35.000Z</time>
      </trkpt>
      <trkpt lat="43.55693" lon="6.18439">
        <ele>437.8</ele>
        <time>2026-05-17T09:25:47.000Z</time>
      </trkpt>
      <trkpt lat="43.55693" lon="6.18452">
        <ele>438.2</ele>
        <time>2026-05-17T09:25:58.000Z</time>
      </trkpt>
      <trkpt lat="43.55687" lon="6.18463">
        <ele>438.7</ele>
        <time>2026-05-17T09:26:10.000Z</time>
      </trkpt>
      <trkpt lat="43.55684" lon="6.18476">
        <ele>438.9</ele>
        <time>2026-05-17T09:26:22.000Z</time>
      </trkpt>
      <trkpt lat="43.55682" lon="6.18489">
        <ele>438.9</ele>
        <time>2026-05-17T09:26:36.000Z</time>
      </trkpt>
      <trkpt lat="43.55684" lon="6.18502">
        <ele>438.9</ele>
        <time>2026-05-17T09:26:45.000Z</time>
      </trkpt>
      <trkpt lat="43.55686" lon="6.18514">
        <ele>438.9</ele>
        <time>2026-05-17T09:26:53.000Z</time>
      </trkpt>
      <trkpt lat="43.5569" lon="6.18527">
        <ele>438.8</ele>
        <time>2026-05-17T09:27:04.000Z</time>
      </trkpt>
      <trkpt lat="43.55697" lon="6.18537">
        <ele>438.6</ele>
        <time>2026-05-17T09:27:15.000Z</time>
      </trkpt>
      <trkpt lat="43.55702" lon="6.18548">
        <ele>438.4</ele>
        <time>2026-05-17T09:27:35.000Z</time>
      </trkpt>
      <trkpt lat="43.55701" lon="6.1856">
        <ele>438.4</ele>
        <time>2026-05-17T09:27:48.000Z</time>
      </trkpt>
      <trkpt lat="43.55704" lon="6.18573">
        <ele>438.4</ele>
        <time>2026-05-17T09:28:01.000Z</time>
      </trkpt>
      <trkpt lat="43.55709" lon="6.18584">
        <ele>438.5</ele>
        <time>2026-05-17T09:28:15.000Z</time>
      </trkpt>
      <trkpt lat="43.55712" lon="6.1859">
        <ele>439</ele>
        <time>2026-05-17T09:28:42.000Z</time>
      </trkpt>
      <trkpt lat="43.55714" lon="6.18589">
        <ele>439.1</ele>
        <time>2026-05-17T09:28:59.000Z</time>
      </trkpt>
      <trkpt lat="43.55716" lon="6.18602">
        <ele>439.4</ele>
        <time>2026-05-17T09:29:21.000Z</time>
      </trkpt>
      <trkpt lat="43.55716" lon="6.18615">
        <ele>440</ele>
        <time>2026-05-17T09:29:33.000Z</time>
      </trkpt>
      <trkpt lat="43.55717" lon="6.18628">
        <ele>440.8</ele>
        <time>2026-05-17T09:29:47.000Z</time>
      </trkpt>
      <trkpt lat="43.55717" lon="6.18641">
        <ele>441.6</ele>
        <time>2026-05-17T09:30:03.000Z</time>
      </trkpt>
      <trkpt lat="43.55717" lon="6.18654">
        <ele>442.4</ele>
        <time>2026-05-17T09:30:17.000Z</time>
      </trkpt>
      <trkpt lat="43.55716" lon="6.18667">
        <ele>443.1</ele>
        <time>2026-05-17T09:30:33.000Z</time>
      </trkpt>
      <trkpt lat="43.55714" lon="6.1868">
        <ele>444.3</ele>
        <time>2026-05-17T09:31:09.000Z</time>
      </trkpt>
      <trkpt lat="43.55714" lon="6.18693">
        <ele>444.4</ele>
        <time>2026-05-17T09:31:18.000Z</time>
      </trkpt>
      <trkpt lat="43.55714" lon="6.18706">
        <ele>444.7</ele>
        <time>2026-05-17T09:31:33.000Z</time>
      </trkpt>
      <trkpt lat="43.55713" lon="6.18719">
        <ele>444.9</ele>
        <time>2026-05-17T09:31:49.000Z</time>
      </trkpt>
      <trkpt lat="43.55713" lon="6.18732">
        <ele>445.1</ele>
        <time>2026-05-17T09:32:00.000Z</time>
      </trkpt>
      <trkpt lat="43.55714" lon="6.18744">
        <ele>445.1</ele>
        <time>2026-05-17T09:32:09.000Z</time>
      </trkpt>
      <trkpt lat="43.55715" lon="6.18756">
        <ele>445.1</ele>
        <time>2026-05-17T09:32:21.000Z</time>
      </trkpt>
      <trkpt lat="43.55716" lon="6.18769">
        <ele>445.2</ele>
        <time>2026-05-17T09:32:33.000Z</time>
      </trkpt>
      <trkpt lat="43.5572" lon="6.18781">
        <ele>445.3</ele>
        <time>2026-05-17T09:32:42.000Z</time>
      </trkpt>
      <trkpt lat="43.55721" lon="6.18794">
        <ele>445.5</ele>
        <time>2026-05-17T09:33:11.000Z</time>
      </trkpt>
      <trkpt lat="43.55727" lon="6.18805">
        <ele>445.6</ele>
        <time>2026-05-17T09:33:23.000Z</time>
      </trkpt>
      <trkpt lat="43.5573" lon="6.18818">
        <ele>445.6</ele>
        <time>2026-05-17T09:33:33.000Z</time>
      </trkpt>
      <trkpt lat="43.55733" lon="6.18831">
        <ele>445.6</ele>
        <time>2026-05-17T09:33:45.000Z</time>
      </trkpt>
      <trkpt lat="43.55732" lon="6.18844">
        <ele>445.6</ele>
        <time>2026-05-17T09:34:01.000Z</time>
      </trkpt>
      <trkpt lat="43.55732" lon="6.18857">
        <ele>445.5</ele>
        <time>2026-05-17T09:34:13.000Z</time>
      </trkpt>
      <trkpt lat="43.55727" lon="6.18868">
        <ele>445.5</ele>
        <time>2026-05-17T09:34:29.000Z</time>
      </trkpt>
      <trkpt lat="43.55728" lon="6.18881">
        <ele>445.4</ele>
        <time>2026-05-17T09:34:42.000Z</time>
      </trkpt>
      <trkpt lat="43.55723" lon="6.18892">
        <ele>445.2</ele>
        <time>2026-05-17T09:34:56.000Z</time>
      </trkpt>
      <trkpt lat="43.55724" lon="6.18905">
        <ele>444.8</ele>
        <time>2026-05-17T09:35:08.000Z</time>
      </trkpt>
      <trkpt lat="43.55723" lon="6.18917">
        <ele>443.5</ele>
        <time>2026-05-17T09:35:24.000Z</time>
      </trkpt>
      <trkpt lat="43.55723" lon="6.1893">
        <ele>442.3</ele>
        <time>2026-05-17T09:35:38.000Z</time>
      </trkpt>
      <trkpt lat="43.55723" lon="6.18932">
        <ele>441.8</ele>
        <time>2026-05-17T09:35:51.000Z</time>
      </trkpt>
      <trkpt lat="43.55722" lon="6.18932">
        <ele>441.6</ele>
        <time>2026-05-17T09:36:16.000Z</time>
      </trkpt>
      <trkpt lat="43.55721" lon="6.18932">
        <ele>441.6</ele>
        <time>2026-05-17T09:36:29.000Z</time>
      </trkpt>
      <trkpt lat="43.5572" lon="6.18934">
        <ele>441.6</ele>
        <time>2026-05-17T09:36:38.000Z</time>
      </trkpt>
      <trkpt lat="43.55721" lon="6.18934">
        <ele>441.6</ele>
        <time>2026-05-17T09:36:45.000Z</time>
      </trkpt>
      <trkpt lat="43.55724" lon="6.18938">
        <ele>441.6</ele>
        <time>2026-05-17T09:37:28.000Z</time>
      </trkpt>
      <trkpt lat="43.55726" lon="6.18943">
        <ele>441.4</ele>
        <time>2026-05-17T09:37:54.000Z</time>
      </trkpt>
      <trkpt lat="43.55726" lon="6.18945">
        <ele>441.4</ele>
        <time>2026-05-17T09:38:05.000Z</time>
      </trkpt>
      <trkpt lat="43.55727" lon="6.18946">
        <ele>441.2</ele>
        <time>2026-05-17T09:38:17.000Z</time>
      </trkpt>
      <trkpt lat="43.55727" lon="6.18946">
        <ele>441.2</ele>
        <time>2026-05-17T09:38:18.000Z</time>
      </trkpt>
      <trkpt lat="43.55736" lon="6.18948">
        <ele>441.3</ele>
        <time>2026-05-17T09:38:36.000Z</time>
      </trkpt>
      <trkpt lat="43.55745" lon="6.18948">
        <ele>441.9</ele>
        <time>2026-05-17T09:38:46.000Z</time>
      </trkpt>
      <trkpt lat="43.55753" lon="6.18944">
        <ele>442.4</ele>
        <time>2026-05-17T09:38:57.000Z</time>
      </trkpt>
      <trkpt lat="43.55758" lon="6.18933">
        <ele>442.9</ele>
        <time>2026-05-17T09:39:09.000Z</time>
      </trkpt>
      <trkpt lat="43.55767" lon="6.18929">
        <ele>444</ele>
        <time>2026-05-17T09:39:24.000Z</time>
      </trkpt>
      <trkpt lat="43.55776" lon="6.18927">
        <ele>444.4</ele>
        <time>2026-05-17T09:39:34.000Z</time>
      </trkpt>
      <trkpt lat="43.55784" lon="6.18919">
        <ele>444.9</ele>
        <time>2026-05-17T09:39:51.000Z</time>
      </trkpt>
      <trkpt lat="43.55791" lon="6.18911">
        <ele>445.5</ele>
        <time>2026-05-17T09:40:03.000Z</time>
      </trkpt>
      <trkpt lat="43.55797" lon="6.18902">
        <ele>446.7</ele>
        <time>2026-05-17T09:40:21.000Z</time>
      </trkpt>
      <trkpt lat="43.55802" lon="6.18891">
        <ele>447.9</ele>
        <time>2026-05-17T09:40:42.000Z</time>
      </trkpt>
      <trkpt lat="43.55806" lon="6.18886">
        <ele>449.2</ele>
        <time>2026-05-17T09:41:23.000Z</time>
      </trkpt>
      <trkpt lat="43.55807" lon="6.18882">
        <ele>449.3</ele>
        <time>2026-05-17T09:41:32.000Z</time>
      </trkpt>
      <trkpt lat="43.55815" lon="6.18875">
        <ele>449.4</ele>
        <time>2026-05-17T09:41:44.000Z</time>
      </trkpt>
      <trkpt lat="43.5582" lon="6.18863">
        <ele>449.6</ele>
        <time>2026-05-17T09:41:56.000Z</time>
      </trkpt>
      <trkpt lat="43.55825" lon="6.18853">
        <ele>449.7</ele>
        <time>2026-05-17T09:42:08.000Z</time>
      </trkpt>
      <trkpt lat="43.55829" lon="6.18842">
        <ele>449.7</ele>
        <time>2026-05-17T09:42:19.000Z</time>
      </trkpt>
      <trkpt lat="43.55833" lon="6.1883">
        <ele>449.7</ele>
        <time>2026-05-17T09:42:29.000Z</time>
      </trkpt>
      <trkpt lat="43.55842" lon="6.18828">
        <ele>449.6</ele>
        <time>2026-05-17T09:42:41.000Z</time>
      </trkpt>
      <trkpt lat="43.55851" lon="6.18824">
        <ele>449.7</ele>
        <time>2026-05-17T09:42:52.000Z</time>
      </trkpt>
      <trkpt lat="43.55859" lon="6.18817">
        <ele>449.9</ele>
        <time>2026-05-17T09:43:04.000Z</time>
      </trkpt>
      <trkpt lat="43.55868" lon="6.18821">
        <ele>451.2</ele>
        <time>2026-05-17T09:43:41.000Z</time>
      </trkpt>
      <trkpt lat="43.55878" lon="6.18818">
        <ele>451.4</ele>
        <time>2026-05-17T09:44:00.000Z</time>
      </trkpt>
      <trkpt lat="43.55887" lon="6.18815">
        <ele>451.6</ele>
        <time>2026-05-17T09:44:11.000Z</time>
      </trkpt>
      <trkpt lat="43.55896" lon="6.18815">
        <ele>452.4</ele>
        <time>2026-05-17T09:44:33.000Z</time>
      </trkpt>
      <trkpt lat="43.55898" lon="6.18815">
        <ele>453.5</ele>
        <time>2026-05-17T09:44:52.000Z</time>
      </trkpt>
      <trkpt lat="43.55901" lon="6.18815">
        <ele>453.6</ele>
        <time>2026-05-17T09:44:59.000Z</time>
      </trkpt>
      <trkpt lat="43.55904" lon="6.18815">
        <ele>454.1</ele>
        <time>2026-05-17T09:45:32.000Z</time>
      </trkpt>
      <trkpt lat="43.55905" lon="6.18815">
        <ele>454.2</ele>
        <time>2026-05-17T09:45:37.000Z</time>
      </trkpt>
      <trkpt lat="43.55913" lon="6.18808">
        <ele>454.8</ele>
        <time>2026-05-17T09:46:05.000Z</time>
      </trkpt>
      <trkpt lat="43.55913" lon="6.18808">
        <ele>455.1</ele>
        <time>2026-05-17T09:46:22.000Z</time>
      </trkpt>
      <trkpt lat="43.55914" lon="6.18808">
        <ele>455.1</ele>
        <time>2026-05-17T09:46:37.000Z</time>
      </trkpt>
      <trkpt lat="43.55914" lon="6.18808">
        <ele>455.2</ele>
        <time>2026-05-17T09:46:53.000Z</time>
      </trkpt>
      <trkpt lat="43.55914" lon="6.18808">
        <ele>455</ele>
        <time>2026-05-17T09:47:23.000Z</time>
      </trkpt>
      <trkpt lat="43.55914" lon="6.18808">
        <ele>455</ele>
        <time>2026-05-17T09:47:35.000Z</time>
      </trkpt>
      <trkpt lat="43.55914" lon="6.18808">
        <ele>454.9</ele>
        <time>2026-05-17T09:48:35.000Z</time>
      </trkpt>
      <trkpt lat="43.55918" lon="6.18805">
        <ele>454.5</ele>
        <time>2026-05-17T09:49:33.000Z</time>
      </trkpt>
      <trkpt lat="43.55918" lon="6.18805">
        <ele>454.4</ele>
        <time>2026-05-17T09:49:40.000Z</time>
      </trkpt>
      <trkpt lat="43.55918" lon="6.18805">
        <ele>454.4</ele>
        <time>2026-05-17T09:49:52.000Z</time>
      </trkpt>
      <trkpt lat="43.55918" lon="6.18805">
        <ele>454.5</ele>
        <time>2026-05-17T09:49:58.000Z</time>
      </trkpt>
      <trkpt lat="43.55912" lon="6.1881">
        <ele>454.9</ele>
        <time>2026-05-17T09:51:49.000Z</time>
      </trkpt>
      <trkpt lat="43.55912" lon="6.1881">
        <ele>454.9</ele>
        <time>2026-05-17T09:51:50.000Z</time>
      </trkpt>
      <trkpt lat="43.55912" lon="6.1881">
        <ele>455.1</ele>
        <time>2026-05-17T09:52:14.000Z</time>
      </trkpt>
      <trkpt lat="43.55914" lon="6.18811">
        <ele>454.8</ele>
        <time>2026-05-17T09:54:00.000Z</time>
      </trkpt>
      <trkpt lat="43.55913" lon="6.18811">
        <ele>454.7</ele>
        <time>2026-05-17T09:54:13.000Z</time>
      </trkpt>
      <trkpt lat="43.55913" lon="6.18811">
        <ele>454.8</ele>
        <time>2026-05-17T09:54:58.000Z</time>
      </trkpt>
      <trkpt lat="43.55912" lon="6.18813">
        <ele>454.9</ele>
        <time>2026-05-17T09:55:10.000Z</time>
      </trkpt>
      <trkpt lat="43.55913" lon="6.18812">
        <ele>454.9</ele>
        <time>2026-05-17T09:55:12.000Z</time>
      </trkpt>
      <trkpt lat="43.55913" lon="6.18811">
        <ele>454.9</ele>
        <time>2026-05-17T09:55:32.000Z</time>
      </trkpt>
      <trkpt lat="43.55914" lon="6.18811">
        <ele>454.8</ele>
        <time>2026-05-17T09:57:17.000Z</time>
      </trkpt>
      <trkpt lat="43.55919" lon="6.18801">
        <ele>454.2</ele>
        <time>2026-05-17T09:58:10.000Z</time>
      </trkpt>
      <trkpt lat="43.55919" lon="6.18798">
        <ele>454</ele>
        <time>2026-05-17T09:58:32.000Z</time>
      </trkpt>
      <trkpt lat="43.55919" lon="6.18798">
        <ele>454</ele>
        <time>2026-05-17T09:58:33.000Z</time>
      </trkpt>
      <trkpt lat="43.55919" lon="6.18798">
        <ele>453.9</ele>
        <time>2026-05-17T09:59:01.000Z</time>
      </trkpt>
      <trkpt lat="43.5592" lon="6.18799">
        <ele>453.8</ele>
        <time>2026-05-17T09:59:15.000Z</time>
      </trkpt>
      <trkpt lat="43.5592" lon="6.18799">
        <ele>453.6</ele>
        <time>2026-05-17T09:59:29.000Z</time>
      </trkpt>
      <trkpt lat="43.55921" lon="6.18798">
        <ele>453.5</ele>
        <time>2026-05-17T09:59:34.000Z</time>
      </trkpt>
      <trkpt lat="43.55921" lon="6.18797">
        <ele>453</ele>
        <time>2026-05-17T09:59:50.000Z</time>
      </trkpt>
      <trkpt lat="43.55921" lon="6.18797">
        <ele>452.9</ele>
        <time>2026-05-17T10:00:12.000Z</time>
      </trkpt>
      <trkpt lat="43.5592" lon="6.18798">
        <ele>452.9</ele>
        <time>2026-05-17T10:00:36.000Z</time>
      </trkpt>
      <trkpt lat="43.5592" lon="6.18798">
        <ele>452.9</ele>
        <time>2026-05-17T10:01:04.000Z</time>
      </trkpt>
      <trkpt lat="43.5592" lon="6.18798">
        <ele>453</ele>
        <time>2026-05-17T10:01:15.000Z</time>
      </trkpt>
      <trkpt lat="43.5592" lon="6.18798">
        <ele>453.2</ele>
        <time>2026-05-17T10:01:34.000Z</time>
      </trkpt>
      <trkpt lat="43.5592" lon="6.18798">
        <ele>453.2</ele>
        <time>2026-05-17T10:01:49.000Z</time>
      </trkpt>
      <trkpt lat="43.5592" lon="6.18797">
        <ele>453.6</ele>
        <time>2026-05-17T10:02:50.000Z</time>
      </trkpt>
      <trkpt lat="43.5592" lon="6.18797">
        <ele>453.7</ele>
        <time>2026-05-17T10:03:02.000Z</time>
      </trkpt>
      <trkpt lat="43.5592" lon="6.18797">
        <ele>453.9</ele>
        <time>2026-05-17T10:03:18.000Z</time>
      </trkpt>
      <trkpt lat="43.5592" lon="6.18797">
        <ele>453.8</ele>
        <time>2026-05-17T10:03:29.000Z</time>
      </trkpt>
      <trkpt lat="43.5592" lon="6.18797">
        <ele>453.8</ele>
        <time>2026-05-17T10:05:17.000Z</time>
      </trkpt>
      <trkpt lat="43.5592" lon="6.18797">
        <ele>453.7</ele>
        <time>2026-05-17T10:05:27.000Z</time>
      </trkpt>
      <trkpt lat="43.55919" lon="6.18798">
        <ele>453.4</ele>
        <time>2026-05-17T10:08:10.000Z</time>
      </trkpt>
      <trkpt lat="43.55919" lon="6.18797">
        <ele>453.4</ele>
        <time>2026-05-17T10:08:22.000Z</time>
      </trkpt>
      <trkpt lat="43.55917" lon="6.18798">
        <ele>453.6</ele>
        <time>2026-05-17T10:10:07.000Z</time>
      </trkpt>
      <trkpt lat="43.55917" lon="6.18799">
        <ele>453.7</ele>
        <time>2026-05-17T10:10:54.000Z</time>
      </trkpt>
      <trkpt lat="43.55918" lon="6.188">
        <ele>453.7</ele>
        <time>2026-05-17T10:11:25.000Z</time>
      </trkpt>
      <trkpt lat="43.55918" lon="6.188">
        <ele>453.7</ele>
        <time>2026-05-17T10:11:35.000Z</time>
      </trkpt>
      <trkpt lat="43.55917" lon="6.188">
        <ele>453.6</ele>
        <time>2026-05-17T10:11:47.000Z</time>
      </trkpt>
      <trkpt lat="43.55917" lon="6.18801">
        <ele>453.6</ele>
        <time>2026-05-17T10:11:58.000Z</time>
      </trkpt>
      <trkpt lat="43.55917" lon="6.18801">
        <ele>453.6</ele>
        <time>2026-05-17T10:11:59.000Z</time>
      </trkpt>
      <trkpt lat="43.55918" lon="6.18801">
        <ele>453.6</ele>
        <time>2026-05-17T10:12:17.000Z</time>
      </trkpt>
      <trkpt lat="43.55919" lon="6.18801">
        <ele>453.6</ele>
        <time>2026-05-17T10:12:24.000Z</time>
      </trkpt>
      <trkpt lat="43.55919" lon="6.18801">
        <ele>453.4</ele>
        <time>2026-05-17T10:12:48.000Z</time>
      </trkpt>
      <trkpt lat="43.5592" lon="6.188">
        <ele>453.3</ele>
        <time>2026-05-17T10:13:20.000Z</time>
      </trkpt>
      <trkpt lat="43.55919" lon="6.18799">
        <ele>453.3</ele>
        <time>2026-05-17T10:13:42.000Z</time>
      </trkpt>
      <trkpt lat="43.55921" lon="6.18801">
        <ele>452.9</ele>
        <time>2026-05-17T10:16:53.000Z</time>
      </trkpt>
      <trkpt lat="43.55921" lon="6.188">
        <ele>452.9</ele>
        <time>2026-05-17T10:17:04.000Z</time>
      </trkpt>
      <trkpt lat="43.55922" lon="6.18799">
        <ele>452.9</ele>
        <time>2026-05-17T10:17:27.000Z</time>
      </trkpt>
      <trkpt lat="43.55917" lon="6.18799">
        <ele>453.1</ele>
        <time>2026-05-17T10:18:34.000Z</time>
      </trkpt>
      <trkpt lat="43.55918" lon="6.188">
        <ele>453.2</ele>
        <time>2026-05-17T10:19:05.000Z</time>
      </trkpt>
      <trkpt lat="43.55918" lon="6.188">
        <ele>453.2</ele>
        <time>2026-05-17T10:19:15.000Z</time>
      </trkpt>
      <trkpt lat="43.55919" lon="6.18799">
        <ele>453.3</ele>
        <time>2026-05-17T10:20:02.000Z</time>
      </trkpt>
      <trkpt lat="43.55919" lon="6.18799">
        <ele>453.2</ele>
        <time>2026-05-17T10:20:14.000Z</time>
      </trkpt>
      <trkpt lat="43.55919" lon="6.18799">
        <ele>453.2</ele>
        <time>2026-05-17T10:20:15.000Z</time>
      </trkpt>
      <trkpt lat="43.55919" lon="6.18799">
        <ele>453.1</ele>
        <time>2026-05-17T10:20:44.000Z</time>
      </trkpt>
      <trkpt lat="43.55917" lon="6.18798">
        <ele>453.1</ele>
        <time>2026-05-17T10:20:58.000Z</time>
      </trkpt>
      <trkpt lat="43.55918" lon="6.18799">
        <ele>453.2</ele>
        <time>2026-05-17T10:21:12.000Z</time>
      </trkpt>
      <trkpt lat="43.55914" lon="6.18803">
        <ele>453.2</ele>
        <time>2026-05-17T10:21:21.000Z</time>
      </trkpt>
      <trkpt lat="43.55913" lon="6.18806">
        <ele>453.5</ele>
        <time>2026-05-17T10:22:07.000Z</time>
      </trkpt>
      <trkpt lat="43.55914" lon="6.18804">
        <ele>453.5</ele>
        <time>2026-05-17T10:23:12.000Z</time>
      </trkpt>
      <trkpt lat="43.55914" lon="6.18806">
        <ele>453.6</ele>
        <time>2026-05-17T10:23:40.000Z</time>
      </trkpt>
      <trkpt lat="43.55914" lon="6.18806">
        <ele>453.6</ele>
        <time>2026-05-17T10:24:00.000Z</time>
      </trkpt>
      <trkpt lat="43.55914" lon="6.18806">
        <ele>453.6</ele>
        <time>2026-05-17T10:24:11.000Z</time>
      </trkpt>
      <trkpt lat="43.55915" lon="6.18803">
        <ele>453.3</ele>
        <time>2026-05-17T10:24:42.000Z</time>
      </trkpt>
      <trkpt lat="43.55917" lon="6.188">
        <ele>453.1</ele>
        <time>2026-05-17T10:25:07.000Z</time>
      </trkpt>
      <trkpt lat="43.55917" lon="6.18799">
        <ele>453.1</ele>
        <time>2026-05-17T10:25:20.000Z</time>
      </trkpt>
      <trkpt lat="43.55917" lon="6.18797">
        <ele>452.7</ele>
        <time>2026-05-17T10:28:19.000Z</time>
      </trkpt>
      <trkpt lat="43.55917" lon="6.18798">
        <ele>452.7</ele>
        <time>2026-05-17T10:28:20.000Z</time>
      </trkpt>
      <trkpt lat="43.55918" lon="6.18801">
        <ele>452.9</ele>
        <time>2026-05-17T10:29:35.000Z</time>
      </trkpt>
      <trkpt lat="43.55917" lon="6.18799">
        <ele>453</ele>
        <time>2026-05-17T10:29:45.000Z</time>
      </trkpt>
      <trkpt lat="43.55917" lon="6.18799">
        <ele>452.9</ele>
        <time>2026-05-17T10:30:00.000Z</time>
      </trkpt>
      <trkpt lat="43.55918" lon="6.18801">
        <ele>452.9</ele>
        <time>2026-05-17T10:32:14.000Z</time>
      </trkpt>
      <trkpt lat="43.55918" lon="6.18802">
        <ele>452.9</ele>
        <time>2026-05-17T10:32:25.000Z</time>
      </trkpt>
      <trkpt lat="43.55919" lon="6.18802">
        <ele>452.9</ele>
        <time>2026-05-17T10:32:28.000Z</time>
      </trkpt>
      <trkpt lat="43.55919" lon="6.18802">
        <ele>453</ele>
        <time>2026-05-17T10:32:45.000Z</time>
      </trkpt>
      <trkpt lat="43.55919" lon="6.18801">
        <ele>453</ele>
        <time>2026-05-17T10:33:43.000Z</time>
      </trkpt>
      <trkpt lat="43.55919" lon="6.18801">
        <ele>453</ele>
        <time>2026-05-17T10:33:54.000Z</time>
      </trkpt>
      <trkpt lat="43.5592" lon="6.18801">
        <ele>453</ele>
        <time>2026-05-17T10:34:18.000Z</time>
      </trkpt>
      <trkpt lat="43.5592" lon="6.18801">
        <ele>452.9</ele>
        <time>2026-05-17T10:34:30.000Z</time>
      </trkpt>
      <trkpt lat="43.5592" lon="6.18801">
        <ele>452.9</ele>
        <time>2026-05-17T10:34:32.000Z</time>
      </trkpt>
      <trkpt lat="43.5592" lon="6.18799">
        <ele>452.7</ele>
        <time>2026-05-17T10:35:26.000Z</time>
      </trkpt>
      <trkpt lat="43.5592" lon="6.18799">
        <ele>452.7</ele>
        <time>2026-05-17T10:35:27.000Z</time>
      </trkpt>
      <trkpt lat="43.55913" lon="6.18807">
        <ele>452.8</ele>
        <time>2026-05-17T10:36:44.000Z</time>
      </trkpt>
      <trkpt lat="43.55912" lon="6.18808">
        <ele>452.9</ele>
        <time>2026-05-17T10:37:10.000Z</time>
      </trkpt>
      <trkpt lat="43.55913" lon="6.18808">
        <ele>452.9</ele>
        <time>2026-05-17T10:37:13.000Z</time>
      </trkpt>
      <trkpt lat="43.55908" lon="6.18805">
        <ele>452.6</ele>
        <time>2026-05-17T10:38:05.000Z</time>
      </trkpt>
      <trkpt lat="43.55917" lon="6.18803">
        <ele>452.5</ele>
        <time>2026-05-17T10:40:07.000Z</time>
      </trkpt>
      <trkpt lat="43.55914" lon="6.18804">
        <ele>452.8</ele>
        <time>2026-05-17T10:45:35.000Z</time>
      </trkpt>
      <trkpt lat="43.55917" lon="6.18801">
        <ele>452.5</ele>
        <time>2026-05-17T10:46:55.000Z</time>
      </trkpt>
      <trkpt lat="43.55918" lon="6.18802">
        <ele>452.5</ele>
        <time>2026-05-17T10:47:34.000Z</time>
      </trkpt>
      <trkpt lat="43.55918" lon="6.18802">
        <ele>452.5</ele>
        <time>2026-05-17T10:47:45.000Z</time>
      </trkpt>
      <trkpt lat="43.55918" lon="6.18802">
        <ele>452.4</ele>
        <time>2026-05-17T10:47:48.000Z</time>
      </trkpt>
      <trkpt lat="43.55918" lon="6.18802">
        <ele>452.4</ele>
        <time>2026-05-17T10:48:02.000Z</time>
      </trkpt>
      <trkpt lat="43.55918" lon="6.188">
        <ele>452.1</ele>
        <time>2026-05-17T10:49:15.000Z</time>
      </trkpt>
      <trkpt lat="43.55918" lon="6.18801">
        <ele>452.1</ele>
        <time>2026-05-17T10:49:30.000Z</time>
      </trkpt>
      <trkpt lat="43.55918" lon="6.188">
        <ele>452.2</ele>
        <time>2026-05-17T10:51:45.000Z</time>
      </trkpt>
      <trkpt lat="43.55918" lon="6.188">
        <ele>452.2</ele>
        <time>2026-05-17T10:52:00.000Z</time>
      </trkpt>
      <trkpt lat="43.55916" lon="6.18798">
        <ele>452.2</ele>
        <time>2026-05-17T10:53:02.000Z</time>
      </trkpt>
      <trkpt lat="43.55915" lon="6.18797">
        <ele>452.1</ele>
        <time>2026-05-17T10:53:40.000Z</time>
      </trkpt>
      <trkpt lat="43.55915" lon="6.18797">
        <ele>452.2</ele>
        <time>2026-05-17T10:53:44.000Z</time>
      </trkpt>
      <trkpt lat="43.55915" lon="6.18797">
        <ele>452.2</ele>
        <time>2026-05-17T10:53:45.000Z</time>
      </trkpt>
      <trkpt lat="43.55915" lon="6.18797">
        <ele>452.2</ele>
        <time>2026-05-17T10:53:59.000Z</time>
      </trkpt>
      <trkpt lat="43.55915" lon="6.18797">
        <ele>452.1</ele>
        <time>2026-05-17T10:54:10.000Z</time>
      </trkpt>
      <trkpt lat="43.55916" lon="6.18797">
        <ele>452.1</ele>
        <time>2026-05-17T10:54:23.000Z</time>
      </trkpt>
      <trkpt lat="43.55916" lon="6.18797">
        <ele>452.1</ele>
        <time>2026-05-17T10:54:34.000Z</time>
      </trkpt>
      <trkpt lat="43.55916" lon="6.18797">
        <ele>452.1</ele>
        <time>2026-05-17T10:54:47.000Z</time>
      </trkpt>
      <trkpt lat="43.55917" lon="6.18798">
        <ele>452.1</ele>
        <time>2026-05-17T10:55:30.000Z</time>
      </trkpt>
      <trkpt lat="43.55916" lon="6.188">
        <ele>452.2</ele>
        <time>2026-05-17T10:56:13.000Z</time>
      </trkpt>
      <trkpt lat="43.55916" lon="6.188">
        <ele>452.2</ele>
        <time>2026-05-17T10:56:27.000Z</time>
      </trkpt>
      <trkpt lat="43.55915" lon="6.18801">
        <ele>452.1</ele>
        <time>2026-05-17T10:56:43.000Z</time>
      </trkpt>
      <trkpt lat="43.55908" lon="6.1881">
        <ele>452.2</ele>
        <time>2026-05-17T10:57:03.000Z</time>
      </trkpt>
      <trkpt lat="43.55899" lon="6.1881">
        <ele>451.8</ele>
        <time>2026-05-17T10:57:33.000Z</time>
      </trkpt>
      <trkpt lat="43.55889" lon="6.18809">
        <ele>450.9</ele>
        <time>2026-05-17T10:57:50.000Z</time>
      </trkpt>
      <trkpt lat="43.5588" lon="6.18814">
        <ele>450.3</ele>
        <time>2026-05-17T10:58:02.000Z</time>
      </trkpt>
      <trkpt lat="43.55872" lon="6.18819">
        <ele>449.9</ele>
        <time>2026-05-17T10:58:30.000Z</time>
      </trkpt>
      <trkpt lat="43.5587" lon="6.18816">
        <ele>449.9</ele>
        <time>2026-05-17T10:58:47.000Z</time>
      </trkpt>
      <trkpt lat="43.55862" lon="6.18812">
        <ele>449.7</ele>
        <time>2026-05-17T10:58:55.000Z</time>
      </trkpt>
      <trkpt lat="43.55853" lon="6.18814">
        <ele>449.4</ele>
        <time>2026-05-17T10:59:04.000Z</time>
      </trkpt>
      <trkpt lat="43.55843" lon="6.18816">
        <ele>448.8</ele>
        <time>2026-05-17T10:59:14.000Z</time>
      </trkpt>
      <trkpt lat="43.55835" lon="6.18821">
        <ele>448.3</ele>
        <time>2026-05-17T10:59:22.000Z</time>
      </trkpt>
      <trkpt lat="43.55827" lon="6.1883">
        <ele>447.8</ele>
        <time>2026-05-17T10:59:34.000Z</time>
      </trkpt>
      <trkpt lat="43.55823" lon="6.18841">
        <ele>447.7</ele>
        <time>2026-05-17T10:59:44.000Z</time>
      </trkpt>
      <trkpt lat="43.55818" lon="6.18853">
        <ele>447.6</ele>
        <time>2026-05-17T10:59:55.000Z</time>
      </trkpt>
      <trkpt lat="43.55814" lon="6.18864">
        <ele>447.5</ele>
        <time>2026-05-17T11:00:04.000Z</time>
      </trkpt>
      <trkpt lat="43.55807" lon="6.18874">
        <ele>447.4</ele>
        <time>2026-05-17T11:00:15.000Z</time>
      </trkpt>
      <trkpt lat="43.558" lon="6.18882">
        <ele>447.3</ele>
        <time>2026-05-17T11:00:31.000Z</time>
      </trkpt>
      <trkpt lat="43.55795" lon="6.18893">
        <ele>447</ele>
        <time>2026-05-17T11:00:42.000Z</time>
      </trkpt>
      <trkpt lat="43.55792" lon="6.18905">
        <ele>445.8</ele>
        <time>2026-05-17T11:01:06.000Z</time>
      </trkpt>
      <trkpt lat="43.55783" lon="6.1891">
        <ele>444.4</ele>
        <time>2026-05-17T11:01:30.000Z</time>
      </trkpt>
      <trkpt lat="43.55778" lon="6.1892">
        <ele>443.2</ele>
        <time>2026-05-17T11:02:17.000Z</time>
      </trkpt>
      <trkpt lat="43.55769" lon="6.18922">
        <ele>442.8</ele>
        <time>2026-05-17T11:02:35.000Z</time>
      </trkpt>
      <trkpt lat="43.5576" lon="6.18925">
        <ele>442.6</ele>
        <time>2026-05-17T11:02:50.000Z</time>
      </trkpt>
      <trkpt lat="43.55755" lon="6.18936">
        <ele>441.8</ele>
        <time>2026-05-17T11:03:07.000Z</time>
      </trkpt>
      <trkpt lat="43.55747" lon="6.18941">
        <ele>440.7</ele>
        <time>2026-05-17T11:03:31.000Z</time>
      </trkpt>
      <trkpt lat="43.55738" lon="6.18942">
        <ele>440.1</ele>
        <time>2026-05-17T11:03:51.000Z</time>
      </trkpt>
      <trkpt lat="43.55737" lon="6.18943">
        <ele>439.9</ele>
        <time>2026-05-17T11:04:14.000Z</time>
      </trkpt>
      <trkpt lat="43.55737" lon="6.18943">
        <ele>439.8</ele>
        <time>2026-05-17T11:04:29.000Z</time>
      </trkpt>
      <trkpt lat="43.55737" lon="6.18943">
        <ele>439.8</ele>
        <time>2026-05-17T11:05:07.000Z</time>
      </trkpt>
      <trkpt lat="43.55737" lon="6.18944">
        <ele>439.9</ele>
        <time>2026-05-17T11:05:42.000Z</time>
      </trkpt>
      <trkpt lat="43.55728" lon="6.18945">
        <ele>439.8</ele>
        <time>2026-05-17T11:06:03.000Z</time>
      </trkpt>
      <trkpt lat="43.55727" lon="6.18945">
        <ele>439.5</ele>
        <time>2026-05-17T11:06:13.000Z</time>
      </trkpt>
      <trkpt lat="43.55727" lon="6.18946">
        <ele>439.1</ele>
        <time>2026-05-17T11:06:33.000Z</time>
      </trkpt>
      <trkpt lat="43.55727" lon="6.18946">
        <ele>439</ele>
        <time>2026-05-17T11:06:44.000Z</time>
      </trkpt>
      <trkpt lat="43.55726" lon="6.18946">
        <ele>438.9</ele>
        <time>2026-05-17T11:07:01.000Z</time>
      </trkpt>
      <trkpt lat="43.55727" lon="6.18946">
        <ele>439</ele>
        <time>2026-05-17T11:07:13.000Z</time>
      </trkpt>
      <trkpt lat="43.55727" lon="6.18947">
        <ele>438.9</ele>
        <time>2026-05-17T11:07:40.000Z</time>
      </trkpt>
      <trkpt lat="43.55726" lon="6.1895">
        <ele>438.7</ele>
        <time>2026-05-17T11:08:05.000Z</time>
      </trkpt>
      <trkpt lat="43.55727" lon="6.18951">
        <ele>438.5</ele>
        <time>2026-05-17T11:08:25.000Z</time>
      </trkpt>
      <trkpt lat="43.55727" lon="6.18961">
        <ele>437</ele>
        <time>2026-05-17T11:09:03.000Z</time>
      </trkpt>
      <trkpt lat="43.55726" lon="6.1896">
        <ele>436.8</ele>
        <time>2026-05-17T11:09:24.000Z</time>
      </trkpt>
      <trkpt lat="43.55727" lon="6.18961">
        <ele>436.5</ele>
        <time>2026-05-17T11:09:45.000Z</time>
      </trkpt>
      <trkpt lat="43.55727" lon="6.18961">
        <ele>436.2</ele>
        <time>2026-05-17T11:10:40.000Z</time>
      </trkpt>
      <trkpt lat="43.55727" lon="6.18961">
        <ele>436.2</ele>
        <time>2026-05-17T11:10:52.000Z</time>
      </trkpt>
      <trkpt lat="43.55727" lon="6.18961">
        <ele>436.3</ele>
        <time>2026-05-17T11:11:00.000Z</time>
      </trkpt>
      <trkpt lat="43.55727" lon="6.18961">
        <ele>436.5</ele>
        <time>2026-05-17T11:11:12.000Z</time>
      </trkpt>
      <trkpt lat="43.55727" lon="6.18962">
        <ele>436.7</ele>
        <time>2026-05-17T11:13:09.000Z</time>
      </trkpt>
      <trkpt lat="43.55722" lon="6.18973">
        <ele>436.5</ele>
        <time>2026-05-17T11:13:31.000Z</time>
      </trkpt>
      <trkpt lat="43.55718" lon="6.18985">
        <ele>435.1</ele>
        <time>2026-05-17T11:13:51.000Z</time>
      </trkpt>
      <trkpt lat="43.55713" lon="6.18996">
        <ele>433.6</ele>
        <time>2026-05-17T11:14:09.000Z</time>
      </trkpt>
      <trkpt lat="43.55707" lon="6.19005">
        <ele>431.9</ele>
        <time>2026-05-17T11:14:24.000Z</time>
      </trkpt>
      <trkpt lat="43.55704" lon="6.19017">
        <ele>430.8</ele>
        <time>2026-05-17T11:14:36.000Z</time>
      </trkpt>
      <trkpt lat="43.55702" lon="6.19029">
        <ele>430.2</ele>
        <time>2026-05-17T11:14:50.000Z</time>
      </trkpt>
      <trkpt lat="43.55703" lon="6.19042">
        <ele>429.6</ele>
        <time>2026-05-17T11:15:05.000Z</time>
      </trkpt>
      <trkpt lat="43.55703" lon="6.19056">
        <ele>428.6</ele>
        <time>2026-05-17T11:15:17.000Z</time>
      </trkpt>
      <trkpt lat="43.55706" lon="6.19068">
        <ele>427.9</ele>
        <time>2026-05-17T11:15:28.000Z</time>
      </trkpt>
      <trkpt lat="43.55712" lon="6.19079">
        <ele>426.8</ele>
        <time>2026-05-17T11:15:43.000Z</time>
      </trkpt>
      <trkpt lat="43.55712" lon="6.19091">
        <ele>425.7</ele>
        <time>2026-05-17T11:15:54.000Z</time>
      </trkpt>
      <trkpt lat="43.55708" lon="6.19103">
        <ele>424.4</ele>
        <time>2026-05-17T11:16:08.000Z</time>
      </trkpt>
      <trkpt lat="43.55701" lon="6.19112">
        <ele>423.5</ele>
        <time>2026-05-17T11:16:21.000Z</time>
      </trkpt>
      <trkpt lat="43.55697" lon="6.19124">
        <ele>422</ele>
        <time>2026-05-17T11:16:36.000Z</time>
      </trkpt>
      <trkpt lat="43.55695" lon="6.19138">
        <ele>421.4</ele>
        <time>2026-05-17T11:16:44.000Z</time>
      </trkpt>
      <trkpt lat="43.5569" lon="6.19149">
        <ele>420.7</ele>
        <time>2026-05-17T11:16:54.000Z</time>
      </trkpt>
      <trkpt lat="43.55693" lon="6.19162">
        <ele>420.2</ele>
        <time>2026-05-17T11:17:04.000Z</time>
      </trkpt>
      <trkpt lat="43.55697" lon="6.19174">
        <ele>419.7</ele>
        <time>2026-05-17T11:17:16.000Z</time>
      </trkpt>
      <trkpt lat="43.55702" lon="6.19185">
        <ele>419.6</ele>
        <time>2026-05-17T11:17:24.000Z</time>
      </trkpt>
      <trkpt lat="43.55705" lon="6.19196">
        <ele>419.3</ele>
        <time>2026-05-17T11:17:38.000Z</time>
      </trkpt>
      <trkpt lat="43.55709" lon="6.19207">
        <ele>418.4</ele>
        <time>2026-05-17T11:18:11.000Z</time>
      </trkpt>
      <trkpt lat="43.55709" lon="6.19206">
        <ele>418.3</ele>
        <time>2026-05-17T11:18:12.000Z</time>
      </trkpt>
      <trkpt lat="43.5571" lon="6.19205">
        <ele>418.1</ele>
        <time>2026-05-17T11:18:30.000Z</time>
      </trkpt>
      <trkpt lat="43.55707" lon="6.19207">
        <ele>418.1</ele>
        <time>2026-05-17T11:18:49.000Z</time>
      </trkpt>
      <trkpt lat="43.55702" lon="6.19217">
        <ele>418.2</ele>
        <time>2026-05-17T11:18:59.000Z</time>
      </trkpt>
      <trkpt lat="43.557" lon="6.1923">
        <ele>418.1</ele>
        <time>2026-05-17T11:19:09.000Z</time>
      </trkpt>
      <trkpt lat="43.55701" lon="6.19244">
        <ele>417.9</ele>
        <time>2026-05-17T11:19:17.000Z</time>
      </trkpt>
      <trkpt lat="43.55705" lon="6.19256">
        <ele>417.5</ele>
        <time>2026-05-17T11:19:24.000Z</time>
      </trkpt>
      <trkpt lat="43.55703" lon="6.19269">
        <ele>416.8</ele>
        <time>2026-05-17T11:19:33.000Z</time>
      </trkpt>
      <trkpt lat="43.55705" lon="6.19281">
        <ele>416.2</ele>
        <time>2026-05-17T11:20:01.000Z</time>
      </trkpt>
      <trkpt lat="43.55703" lon="6.19294">
        <ele>416.1</ele>
        <time>2026-05-17T11:20:11.000Z</time>
      </trkpt>
      <trkpt lat="43.55697" lon="6.19293">
        <ele>415.6</ele>
        <time>2026-05-17T11:20:38.000Z</time>
      </trkpt>
      <trkpt lat="43.55696" lon="6.19293">
        <ele>415.6</ele>
        <time>2026-05-17T11:20:55.000Z</time>
      </trkpt>
      <trkpt lat="43.55693" lon="6.19297">
        <ele>415.2</ele>
        <time>2026-05-17T11:21:45.000Z</time>
      </trkpt>
      <trkpt lat="43.5569" lon="6.19293">
        <ele>415</ele>
        <time>2026-05-17T11:22:04.000Z</time>
      </trkpt>
      <trkpt lat="43.55681" lon="6.19288">
        <ele>414.7</ele>
        <time>2026-05-17T11:22:23.000Z</time>
      </trkpt>
      <trkpt lat="43.55672" lon="6.19285">
        <ele>414.1</ele>
        <time>2026-05-17T11:22:44.000Z</time>
      </trkpt>
      <trkpt lat="43.55663" lon="6.19284">
        <ele>413.7</ele>
        <time>2026-05-17T11:22:59.000Z</time>
      </trkpt>
      <trkpt lat="43.55654" lon="6.19284">
        <ele>413.5</ele>
        <time>2026-05-17T11:23:30.000Z</time>
      </trkpt>
      <trkpt lat="43.55644" lon="6.19283">
        <ele>413.4</ele>
        <time>2026-05-17T11:23:39.000Z</time>
      </trkpt>
      <trkpt lat="43.55637" lon="6.19291">
        <ele>413.3</ele>
        <time>2026-05-17T11:23:48.000Z</time>
      </trkpt>
      <trkpt lat="43.55631" lon="6.19301">
        <ele>412.6</ele>
        <time>2026-05-17T11:24:01.000Z</time>
      </trkpt>
      <trkpt lat="43.55626" lon="6.19304">
        <ele>411.3</ele>
        <time>2026-05-17T11:24:52.000Z</time>
      </trkpt>
      <trkpt lat="43.55624" lon="6.19309">
        <ele>410.7</ele>
        <time>2026-05-17T11:26:20.000Z</time>
      </trkpt>
      <trkpt lat="43.55623" lon="6.19322">
        <ele>410.5</ele>
        <time>2026-05-17T11:26:33.000Z</time>
      </trkpt>
      <trkpt lat="43.5562" lon="6.19335">
        <ele>409.9</ele>
        <time>2026-05-17T11:26:44.000Z</time>
      </trkpt>
      <trkpt lat="43.55617" lon="6.19346">
        <ele>409.2</ele>
        <time>2026-05-17T11:26:57.000Z</time>
      </trkpt>
      <trkpt lat="43.55611" lon="6.19358">
        <ele>408.3</ele>
        <time>2026-05-17T11:27:08.000Z</time>
      </trkpt>
      <trkpt lat="43.55604" lon="6.19368">
        <ele>407.7</ele>
        <time>2026-05-17T11:27:20.000Z</time>
      </trkpt>
      <trkpt lat="43.55597" lon="6.19376">
        <ele>407.1</ele>
        <time>2026-05-17T11:27:33.000Z</time>
      </trkpt>
      <trkpt lat="43.55589" lon="6.19384">
        <ele>406.4</ele>
        <time>2026-05-17T11:27:43.000Z</time>
      </trkpt>
      <trkpt lat="43.55582" lon="6.19393">
        <ele>405.8</ele>
        <time>2026-05-17T11:27:52.000Z</time>
      </trkpt>
      <trkpt lat="43.55575" lon="6.19402">
        <ele>405.3</ele>
        <time>2026-05-17T11:28:02.000Z</time>
      </trkpt>
      <trkpt lat="43.55566" lon="6.19408">
        <ele>405</ele>
        <time>2026-05-17T11:28:11.000Z</time>
      </trkpt>
      <trkpt lat="43.55561" lon="6.19419">
        <ele>404.8</ele>
        <time>2026-05-17T11:28:20.000Z</time>
      </trkpt>
      <trkpt lat="43.55554" lon="6.19428">
        <ele>404.9</ele>
        <time>2026-05-17T11:28:31.000Z</time>
      </trkpt>
      <trkpt lat="43.5555" lon="6.19439">
        <ele>405</ele>
        <time>2026-05-17T11:28:40.000Z</time>
      </trkpt>
      <trkpt lat="43.55545" lon="6.19451">
        <ele>405.4</ele>
        <time>2026-05-17T11:28:53.000Z</time>
      </trkpt>
      <trkpt lat="43.5554" lon="6.19462">
        <ele>405.5</ele>
        <time>2026-05-17T11:29:05.000Z</time>
      </trkpt>
      <trkpt lat="43.55537" lon="6.19475">
        <ele>405.6</ele>
        <time>2026-05-17T11:29:13.000Z</time>
      </trkpt>
      <trkpt lat="43.55533" lon="6.19486">
        <ele>405.3</ele>
        <time>2026-05-17T11:29:23.000Z</time>
      </trkpt>
      <trkpt lat="43.55533" lon="6.19499">
        <ele>405.1</ele>
        <time>2026-05-17T11:29:33.000Z</time>
      </trkpt>
      <trkpt lat="43.55529" lon="6.19511">
        <ele>405</ele>
        <time>2026-05-17T11:29:43.000Z</time>
      </trkpt>
      <trkpt lat="43.55524" lon="6.19523">
        <ele>405</ele>
        <time>2026-05-17T11:29:52.000Z</time>
      </trkpt>
      <trkpt lat="43.55521" lon="6.19535">
        <ele>404.8</ele>
        <time>2026-05-17T11:30:02.000Z</time>
      </trkpt>
      <trkpt lat="43.55512" lon="6.19543">
        <ele>404.4</ele>
        <time>2026-05-17T11:30:12.000Z</time>
      </trkpt>
      <trkpt lat="43.55502" lon="6.19545">
        <ele>404</ele>
        <time>2026-05-17T11:30:21.000Z</time>
      </trkpt>
      <trkpt lat="43.55492" lon="6.19547">
        <ele>404</ele>
        <time>2026-05-17T11:30:33.000Z</time>
      </trkpt>
      <trkpt lat="43.55483" lon="6.19546">
        <ele>404</ele>
        <time>2026-05-17T11:30:47.000Z</time>
      </trkpt>
      <trkpt lat="43.55474" lon="6.19541">
        <ele>404.1</ele>
        <time>2026-05-17T11:30:59.000Z</time>
      </trkpt>
      <trkpt lat="43.55464" lon="6.19539">
        <ele>404.1</ele>
        <time>2026-05-17T11:31:05.000Z</time>
      </trkpt>
      <trkpt lat="43.55454" lon="6.1954">
        <ele>404.1</ele>
        <time>2026-05-17T11:31:16.000Z</time>
      </trkpt>
      <trkpt lat="43.55444" lon="6.19539">
        <ele>403.9</ele>
        <time>2026-05-17T11:31:24.000Z</time>
      </trkpt>
      <trkpt lat="43.55436" lon="6.19544">
        <ele>403.3</ele>
        <time>2026-05-17T11:31:33.000Z</time>
      </trkpt>
      <trkpt lat="43.55427" lon="6.19547">
        <ele>402.4</ele>
        <time>2026-05-17T11:31:42.000Z</time>
      </trkpt>
      <trkpt lat="43.55418" lon="6.1955">
        <ele>401.8</ele>
        <time>2026-05-17T11:31:51.000Z</time>
      </trkpt>
      <trkpt lat="43.5541" lon="6.19558">
        <ele>401.3</ele>
        <time>2026-05-17T11:32:01.000Z</time>
      </trkpt>
      <trkpt lat="43.55401" lon="6.19563">
        <ele>400.9</ele>
        <time>2026-05-17T11:32:14.000Z</time>
      </trkpt>
      <trkpt lat="43.55393" lon="6.19569">
        <ele>400.6</ele>
        <time>2026-05-17T11:32:33.000Z</time>
      </trkpt>
      <trkpt lat="43.55387" lon="6.19579">
        <ele>400.5</ele>
        <time>2026-05-17T11:32:43.000Z</time>
      </trkpt>
      <trkpt lat="43.55382" lon="6.1959">
        <ele>400.4</ele>
        <time>2026-05-17T11:32:52.000Z</time>
      </trkpt>
      <trkpt lat="43.55375" lon="6.196">
        <ele>400.2</ele>
        <time>2026-05-17T11:33:11.000Z</time>
      </trkpt>
      <trkpt lat="43.55371" lon="6.19612">
        <ele>400</ele>
        <time>2026-05-17T11:33:19.000Z</time>
      </trkpt>
      <trkpt lat="43.55365" lon="6.19623">
        <ele>399.8</ele>
        <time>2026-05-17T11:33:28.000Z</time>
      </trkpt>
      <trkpt lat="43.55362" lon="6.19635">
        <ele>399.2</ele>
        <time>2026-05-17T11:33:38.000Z</time>
      </trkpt>
      <trkpt lat="43.55356" lon="6.19644">
        <ele>398.3</ele>
        <time>2026-05-17T11:33:49.000Z</time>
      </trkpt>
      <trkpt lat="43.55349" lon="6.19653">
        <ele>397.3</ele>
        <time>2026-05-17T11:34:02.000Z</time>
      </trkpt>
      <trkpt lat="43.5534" lon="6.19654">
        <ele>396.6</ele>
        <time>2026-05-17T11:34:10.000Z</time>
      </trkpt>
      <trkpt lat="43.5533" lon="6.19655">
        <ele>395.6</ele>
        <time>2026-05-17T11:34:21.000Z</time>
      </trkpt>
      <trkpt lat="43.5532" lon="6.19656">
        <ele>394.5</ele>
        <time>2026-05-17T11:34:37.000Z</time>
      </trkpt>
      <trkpt lat="43.55312" lon="6.19663">
        <ele>393.8</ele>
        <time>2026-05-17T11:34:47.000Z</time>
      </trkpt>
      <trkpt lat="43.55306" lon="6.19673">
        <ele>393.3</ele>
        <time>2026-05-17T11:34:55.000Z</time>
      </trkpt>
      <trkpt lat="43.55307" lon="6.19686">
        <ele>392.8</ele>
        <time>2026-05-17T11:35:06.000Z</time>
      </trkpt>
      <trkpt lat="43.55309" lon="6.19699">
        <ele>392.5</ele>
        <time>2026-05-17T11:35:18.000Z</time>
      </trkpt>
      <trkpt lat="43.55308" lon="6.19713">
        <ele>392.5</ele>
        <time>2026-05-17T11:35:30.000Z</time>
      </trkpt>
      <trkpt lat="43.55314" lon="6.19724">
        <ele>392.5</ele>
        <time>2026-05-17T11:35:39.000Z</time>
      </trkpt>
      <trkpt lat="43.55319" lon="6.19735">
        <ele>392.5</ele>
        <time>2026-05-17T11:35:48.000Z</time>
      </trkpt>
      <trkpt lat="43.55317" lon="6.19747">
        <ele>392.5</ele>
        <time>2026-05-17T11:35:58.000Z</time>
      </trkpt>
      <trkpt lat="43.55321" lon="6.19759">
        <ele>392.4</ele>
        <time>2026-05-17T11:36:11.000Z</time>
      </trkpt>
      <trkpt lat="43.5532" lon="6.19771">
        <ele>392.1</ele>
        <time>2026-05-17T11:36:24.000Z</time>
      </trkpt>
      <trkpt lat="43.55323" lon="6.19783">
        <ele>391.1</ele>
        <time>2026-05-17T11:36:42.000Z</time>
      </trkpt>
      <trkpt lat="43.55322" lon="6.19796">
        <ele>389.9</ele>
        <time>2026-05-17T11:36:59.000Z</time>
      </trkpt>
      <trkpt lat="43.55318" lon="6.19807">
        <ele>388.2</ele>
        <time>2026-05-17T11:37:19.000Z</time>
      </trkpt>
      <trkpt lat="43.5531" lon="6.19813">
        <ele>387.5</ele>
        <time>2026-05-17T11:37:29.000Z</time>
      </trkpt>
      <trkpt lat="43.55301" lon="6.19819">
        <ele>386.2</ele>
        <time>2026-05-17T11:37:46.000Z</time>
      </trkpt>
      <trkpt lat="43.55293" lon="6.19827">
        <ele>384.4</ele>
        <time>2026-05-17T11:38:02.000Z</time>
      </trkpt>
      <trkpt lat="43.55284" lon="6.19832">
        <ele>383.2</ele>
        <time>2026-05-17T11:38:17.000Z</time>
      </trkpt>
      <trkpt lat="43.55275" lon="6.19836">
        <ele>381.8</ele>
        <time>2026-05-17T11:38:38.000Z</time>
      </trkpt>
      <trkpt lat="43.55267" lon="6.19844">
        <ele>380.8</ele>
        <time>2026-05-17T11:38:51.000Z</time>
      </trkpt>
      <trkpt lat="43.5526" lon="6.19852">
        <ele>379.8</ele>
        <time>2026-05-17T11:39:04.000Z</time>
      </trkpt>
      <trkpt lat="43.55253" lon="6.1986">
        <ele>379.5</ele>
        <time>2026-05-17T11:39:14.000Z</time>
      </trkpt>
      <trkpt lat="43.55247" lon="6.1987">
        <ele>379.6</ele>
        <time>2026-05-17T11:39:28.000Z</time>
      </trkpt>
      <trkpt lat="43.55249" lon="6.19874">
        <ele>379.7</ele>
        <time>2026-05-17T11:39:55.000Z</time>
      </trkpt>
      <trkpt lat="43.55248" lon="6.19876">
        <ele>379.7</ele>
        <time>2026-05-17T11:40:20.000Z</time>
      </trkpt>
      <trkpt lat="43.55245" lon="6.19878">
        <ele>379.7</ele>
        <time>2026-05-17T11:40:37.000Z</time>
      </trkpt>
      <trkpt lat="43.55244" lon="6.19877">
        <ele>379.6</ele>
        <time>2026-05-17T11:40:42.000Z</time>
      </trkpt>
      <trkpt lat="43.55245" lon="6.19864">
        <ele>379.4</ele>
        <time>2026-05-17T11:41:00.000Z</time>
      </trkpt>
      <trkpt lat="43.55241" lon="6.19853">
        <ele>379.3</ele>
        <time>2026-05-17T11:41:12.000Z</time>
      </trkpt>
      <trkpt lat="43.5524" lon="6.1984">
        <ele>379.4</ele>
        <time>2026-05-17T11:41:30.000Z</time>
      </trkpt>
      <trkpt lat="43.5524" lon="6.19826">
        <ele>379.4</ele>
        <time>2026-05-17T11:41:39.000Z</time>
      </trkpt>
      <trkpt lat="43.5524" lon="6.19814">
        <ele>379.2</ele>
        <time>2026-05-17T11:41:51.000Z</time>
      </trkpt>
      <trkpt lat="43.55238" lon="6.19801">
        <ele>378.9</ele>
        <time>2026-05-17T11:42:02.000Z</time>
      </trkpt>
      <trkpt lat="43.55237" lon="6.19788">
        <ele>378.3</ele>
        <time>2026-05-17T11:42:14.000Z</time>
      </trkpt>
      <trkpt lat="43.55236" lon="6.19775">
        <ele>376.9</ele>
        <time>2026-05-17T11:42:36.000Z</time>
      </trkpt>
      <trkpt lat="43.55233" lon="6.19762">
        <ele>376.5</ele>
        <time>2026-05-17T11:42:48.000Z</time>
      </trkpt>
      <trkpt lat="43.55228" lon="6.19756">
        <ele>376.1</ele>
        <time>2026-05-17T11:43:22.000Z</time>
      </trkpt>
      <trkpt lat="43.5523" lon="6.19759">
        <ele>376</ele>
        <time>2026-05-17T11:43:35.000Z</time>
      </trkpt>
      <trkpt lat="43.5523" lon="6.19759">
        <ele>376</ele>
        <time>2026-05-17T11:43:47.000Z</time>
      </trkpt>
      <trkpt lat="43.55229" lon="6.19758">
        <ele>376</ele>
        <time>2026-05-17T11:43:50.000Z</time>
      </trkpt>
      <trkpt lat="43.55224" lon="6.19747">
        <ele>375.9</ele>
        <time>2026-05-17T11:44:03.000Z</time>
      </trkpt>
      <trkpt lat="43.55221" lon="6.19735">
        <ele>375.6</ele>
        <time>2026-05-17T11:44:13.000Z</time>
      </trkpt>
      <trkpt lat="43.55219" lon="6.19722">
        <ele>375.4</ele>
        <time>2026-05-17T11:44:21.000Z</time>
      </trkpt>
      <trkpt lat="43.55214" lon="6.19712">
        <ele>375.1</ele>
        <time>2026-05-17T11:44:29.000Z</time>
      </trkpt>
      <trkpt lat="43.55207" lon="6.19711">
        <ele>374.8</ele>
        <time>2026-05-17T11:45:03.000Z</time>
      </trkpt>
      <trkpt lat="43.55207" lon="6.19711">
        <ele>374.8</ele>
        <time>2026-05-17T11:45:25.000Z</time>
      </trkpt>
      <trkpt lat="43.55206" lon="6.19698">
        <ele>374.8</ele>
        <time>2026-05-17T11:45:49.000Z</time>
      </trkpt>
      <trkpt lat="43.552" lon="6.19688">
        <ele>374.6</ele>
        <time>2026-05-17T11:46:00.000Z</time>
      </trkpt>
      <trkpt lat="43.55192" lon="6.19692">
        <ele>374.5</ele>
        <time>2026-05-17T11:46:17.000Z</time>
      </trkpt>
      <trkpt lat="43.5519" lon="6.1968">
        <ele>374.6</ele>
        <time>2026-05-17T11:46:43.000Z</time>
      </trkpt>
      <trkpt lat="43.55186" lon="6.19669">
        <ele>374.4</ele>
        <time>2026-05-17T11:46:54.000Z</time>
      </trkpt>
      <trkpt lat="43.5519" lon="6.19658">
        <ele>374.1</ele>
        <time>2026-05-17T11:47:09.000Z</time>
      </trkpt>
      <trkpt lat="43.55182" lon="6.19648">
        <ele>373.7</ele>
        <time>2026-05-17T11:47:18.000Z</time>
      </trkpt>
      <trkpt lat="43.55178" lon="6.19637">
        <ele>372.8</ele>
        <time>2026-05-17T11:47:30.000Z</time>
      </trkpt>
      <trkpt lat="43.55173" lon="6.19627">
        <ele>372.3</ele>
        <time>2026-05-17T11:47:40.000Z</time>
      </trkpt>
      <trkpt lat="43.55166" lon="6.19617">
        <ele>371.9</ele>
        <time>2026-05-17T11:47:51.000Z</time>
      </trkpt>
      <trkpt lat="43.55164" lon="6.19605">
        <ele>371.6</ele>
        <time>2026-05-17T11:48:01.000Z</time>
      </trkpt>
      <trkpt lat="43.55158" lon="6.19595">
        <ele>371.3</ele>
        <time>2026-05-17T11:48:11.000Z</time>
      </trkpt>
      <trkpt lat="43.55153" lon="6.19585">
        <ele>370.7</ele>
        <time>2026-05-17T11:48:30.000Z</time>
      </trkpt>
      <trkpt lat="43.5515" lon="6.19572">
        <ele>370.3</ele>
        <time>2026-05-17T11:48:44.000Z</time>
      </trkpt>
      <trkpt lat="43.55147" lon="6.19559">
        <ele>370.1</ele>
        <time>2026-05-17T11:48:54.000Z</time>
      </trkpt>
      <trkpt lat="43.55147" lon="6.19546">
        <ele>369.9</ele>
        <time>2026-05-17T11:49:04.000Z</time>
      </trkpt>
      <trkpt lat="43.55142" lon="6.19534">
        <ele>369.5</ele>
        <time>2026-05-17T11:49:14.000Z</time>
      </trkpt>
      <trkpt lat="43.5514" lon="6.19521">
        <ele>368.7</ele>
        <time>2026-05-17T11:49:26.000Z</time>
      </trkpt>
      <trkpt lat="43.55138" lon="6.19508">
        <ele>368</ele>
        <time>2026-05-17T11:49:37.000Z</time>
      </trkpt>
      <trkpt lat="43.55139" lon="6.19495">
        <ele>367.2</ele>
        <time>2026-05-17T11:49:52.000Z</time>
      </trkpt>
      <trkpt lat="43.55139" lon="6.19482">
        <ele>366.8</ele>
        <time>2026-05-17T11:50:06.000Z</time>
      </trkpt>
      <trkpt lat="43.55138" lon="6.19468">
        <ele>366.4</ele>
        <time>2026-05-17T11:50:19.000Z</time>
      </trkpt>
      <trkpt lat="43.55136" lon="6.19456">
        <ele>365.6</ele>
        <time>2026-05-17T11:50:40.000Z</time>
      </trkpt>
      <trkpt lat="43.55135" lon="6.19443">
        <ele>365.4</ele>
        <time>2026-05-17T11:50:50.000Z</time>
      </trkpt>
      <trkpt lat="43.55135" lon="6.1943">
        <ele>365.4</ele>
        <time>2026-05-17T11:51:02.000Z</time>
      </trkpt>
      <trkpt lat="43.55139" lon="6.19419">
        <ele>365.3</ele>
        <time>2026-05-17T11:51:15.000Z</time>
      </trkpt>
      <trkpt lat="43.55142" lon="6.19407">
        <ele>365.1</ele>
        <time>2026-05-17T11:51:30.000Z</time>
      </trkpt>
      <trkpt lat="43.55144" lon="6.19393">
        <ele>365.1</ele>
        <time>2026-05-17T11:51:44.000Z</time>
      </trkpt>
      <trkpt lat="43.55145" lon="6.19381">
        <ele>365</ele>
        <time>2026-05-17T11:51:55.000Z</time>
      </trkpt>
      <trkpt lat="43.55146" lon="6.19368">
        <ele>364.6</ele>
        <time>2026-05-17T11:52:05.000Z</time>
      </trkpt>
      <trkpt lat="43.55152" lon="6.19358">
        <ele>363.5</ele>
        <time>2026-05-17T11:52:19.000Z</time>
      </trkpt>
      <trkpt lat="43.55152" lon="6.19349">
        <ele>362.6</ele>
        <time>2026-05-17T11:52:43.000Z</time>
      </trkpt>
      <trkpt lat="43.55153" lon="6.19349">
        <ele>362.5</ele>
        <time>2026-05-17T11:53:50.000Z</time>
      </trkpt>
      <trkpt lat="43.55153" lon="6.19349">
        <ele>362.4</ele>
        <time>2026-05-17T11:54:11.000Z</time>
      </trkpt>
      <trkpt lat="43.55153" lon="6.19348">
        <ele>362.4</ele>
        <time>2026-05-17T11:54:18.000Z</time>
      </trkpt>
      <trkpt lat="43.55153" lon="6.19349">
        <ele>362.4</ele>
        <time>2026-05-17T11:54:30.000Z</time>
      </trkpt>
      <trkpt lat="43.55151" lon="6.19346">
        <ele>362.3</ele>
        <time>2026-05-17T11:54:40.000Z</time>
      </trkpt>
      <trkpt lat="43.55148" lon="6.19333">
        <ele>362.3</ele>
        <time>2026-05-17T11:54:49.000Z</time>
      </trkpt>
      <trkpt lat="43.55148" lon="6.19321">
        <ele>362.1</ele>
        <time>2026-05-17T11:54:57.000Z</time>
      </trkpt>
      <trkpt lat="43.55142" lon="6.19309">
        <ele>361.9</ele>
        <time>2026-05-17T11:55:04.000Z</time>
      </trkpt>
      <trkpt lat="43.55135" lon="6.19301">
        <ele>361.2</ele>
        <time>2026-05-17T11:55:23.000Z</time>
      </trkpt>
      <trkpt lat="43.55136" lon="6.19303">
        <ele>360.5</ele>
        <time>2026-05-17T11:55:52.000Z</time>
      </trkpt>
      <trkpt lat="43.55135" lon="6.19305">
        <ele>360.3</ele>
        <time>2026-05-17T11:56:03.000Z</time>
      </trkpt>
      <trkpt lat="43.55129" lon="6.19293">
        <ele>360.2</ele>
        <time>2026-05-17T11:56:32.000Z</time>
      </trkpt>
      <trkpt lat="43.55126" lon="6.19281">
        <ele>360</ele>
        <time>2026-05-17T11:56:42.000Z</time>
      </trkpt>
      <trkpt lat="43.55119" lon="6.19271">
        <ele>359.4</ele>
        <time>2026-05-17T11:56:50.000Z</time>
      </trkpt>
      <trkpt lat="43.55117" lon="6.19259">
        <ele>357.5</ele>
        <time>2026-05-17T11:57:01.000Z</time>
      </trkpt>
      <trkpt lat="43.55116" lon="6.19253">
        <ele>355.6</ele>
        <time>2026-05-17T11:57:24.000Z</time>
      </trkpt>
      <trkpt lat="43.55113" lon="6.19248">
        <ele>355.6</ele>
        <time>2026-05-17T11:57:39.000Z</time>
      </trkpt>
      <trkpt lat="43.55118" lon="6.19236">
        <ele>355.3</ele>
        <time>2026-05-17T11:58:10.000Z</time>
      </trkpt>
      <trkpt lat="43.5512" lon="6.19223">
        <ele>355.4</ele>
        <time>2026-05-17T11:58:20.000Z</time>
      </trkpt>
      <trkpt lat="43.55123" lon="6.1921">
        <ele>355.5</ele>
        <time>2026-05-17T11:58:33.000Z</time>
      </trkpt>
      <trkpt lat="43.55127" lon="6.19198">
        <ele>356.5</ele>
        <time>2026-05-17T11:59:07.000Z</time>
      </trkpt>
      <trkpt lat="43.55134" lon="6.1919">
        <ele>356.8</ele>
        <time>2026-05-17T11:59:18.000Z</time>
      </trkpt>
      <trkpt lat="43.55138" lon="6.19179">
        <ele>357.4</ele>
        <time>2026-05-17T11:59:44.000Z</time>
      </trkpt>
      <trkpt lat="43.55138" lon="6.1918">
        <ele>357.7</ele>
        <time>2026-05-17T11:59:58.000Z</time>
      </trkpt>
      <trkpt lat="43.55138" lon="6.19179">
        <ele>357.7</ele>
        <time>2026-05-17T11:59:59.000Z</time>
      </trkpt>
      <trkpt lat="43.55142" lon="6.19167">
        <ele>357.8</ele>
        <time>2026-05-17T12:00:32.000Z</time>
      </trkpt>
      <trkpt lat="43.55136" lon="6.19176">
        <ele>358</ele>
        <time>2026-05-17T12:00:53.000Z</time>
      </trkpt>
      <trkpt lat="43.55143" lon="6.19186">
        <ele>358</ele>
        <time>2026-05-17T12:01:05.000Z</time>
      </trkpt>
      <trkpt lat="43.55151" lon="6.19192">
        <ele>358.7</ele>
        <time>2026-05-17T12:01:23.000Z</time>
      </trkpt>
      <trkpt lat="43.55156" lon="6.19181">
        <ele>360</ele>
        <time>2026-05-17T12:01:41.000Z</time>
      </trkpt>
      <trkpt lat="43.55161" lon="6.19171">
        <ele>360.5</ele>
        <time>2026-05-17T12:02:04.000Z</time>
      </trkpt>
      <trkpt lat="43.5516" lon="6.19166">
        <ele>360.7</ele>
        <time>2026-05-17T12:02:40.000Z</time>
      </trkpt>
      <trkpt lat="43.55158" lon="6.19168">
        <ele>360.7</ele>
        <time>2026-05-17T12:03:34.000Z</time>
      </trkpt>
      <trkpt lat="43.55152" lon="6.19178">
        <ele>360.7</ele>
        <time>2026-05-17T12:03:59.000Z</time>
      </trkpt>
      <trkpt lat="43.55144" lon="6.19184">
        <ele>360</ele>
        <time>2026-05-17T12:04:27.000Z</time>
      </trkpt>
      <trkpt lat="43.5514" lon="6.19172">
        <ele>357.5</ele>
        <time>2026-05-17T12:04:57.000Z</time>
      </trkpt>
      <trkpt lat="43.55143" lon="6.1916">
        <ele>357.5</ele>
        <time>2026-05-17T12:05:22.000Z</time>
      </trkpt>
      <trkpt lat="43.55147" lon="6.19148">
        <ele>357.5</ele>
        <time>2026-05-17T12:05:33.000Z</time>
      </trkpt>
      <trkpt lat="43.55149" lon="6.19136">
        <ele>357.6</ele>
        <time>2026-05-17T12:05:43.000Z</time>
      </trkpt>
      <trkpt lat="43.55149" lon="6.19122">
        <ele>357.6</ele>
        <time>2026-05-17T12:05:56.000Z</time>
      </trkpt>
      <trkpt lat="43.55151" lon="6.1911">
        <ele>357.8</ele>
        <time>2026-05-17T12:06:11.000Z</time>
      </trkpt>
      <trkpt lat="43.55153" lon="6.19097">
        <ele>358</ele>
        <time>2026-05-17T12:06:23.000Z</time>
      </trkpt>
      <trkpt lat="43.55155" lon="6.19084">
        <ele>358.2</ele>
        <time>2026-05-17T12:06:35.000Z</time>
      </trkpt>
      <trkpt lat="43.55157" lon="6.19072">
        <ele>358.2</ele>
        <time>2026-05-17T12:06:49.000Z</time>
      </trkpt>
      <trkpt lat="43.55157" lon="6.19059">
        <ele>358.4</ele>
        <time>2026-05-17T12:07:28.000Z</time>
      </trkpt>
      <trkpt lat="43.5515" lon="6.1905">
        <ele>358.2</ele>
        <time>2026-05-17T12:07:45.000Z</time>
      </trkpt>
      <trkpt lat="43.55141" lon="6.19046">
        <ele>357.9</ele>
        <time>2026-05-17T12:07:59.000Z</time>
      </trkpt>
      <trkpt lat="43.55134" lon="6.19038">
        <ele>357.6</ele>
        <time>2026-05-17T12:08:12.000Z</time>
      </trkpt>
      <trkpt lat="43.55125" lon="6.19034">
        <ele>357.4</ele>
        <time>2026-05-17T12:08:18.000Z</time>
      </trkpt>
      <trkpt lat="43.55116" lon="6.19033">
        <ele>357.1</ele>
        <time>2026-05-17T12:08:26.000Z</time>
      </trkpt>
      <trkpt lat="43.55108" lon="6.19029">
        <ele>356.7</ele>
        <time>2026-05-17T12:08:38.000Z</time>
      </trkpt>
      <trkpt lat="43.55099" lon="6.19025">
        <ele>356.5</ele>
        <time>2026-05-17T12:08:51.000Z</time>
      </trkpt>
      <trkpt lat="43.55089" lon="6.19023">
        <ele>356.2</ele>
        <time>2026-05-17T12:08:59.000Z</time>
      </trkpt>
      <trkpt lat="43.5508" lon="6.19022">
        <ele>355.8</ele>
        <time>2026-05-17T12:09:12.000Z</time>
      </trkpt>
      <trkpt lat="43.5507" lon="6.19021">
        <ele>355.6</ele>
        <time>2026-05-17T12:09:20.000Z</time>
      </trkpt>
      <trkpt lat="43.5506" lon="6.19019">
        <ele>355.4</ele>
        <time>2026-05-17T12:09:28.000Z</time>
      </trkpt>
      <trkpt lat="43.55051" lon="6.19015">
        <ele>355</ele>
        <time>2026-05-17T12:09:44.000Z</time>
      </trkpt>
      <trkpt lat="43.55042" lon="6.19014">
        <ele>354.9</ele>
        <time>2026-05-17T12:09:59.000Z</time>
      </trkpt>
      <trkpt lat="43.55033" lon="6.19013">
        <ele>355.1</ele>
        <time>2026-05-17T12:10:10.000Z</time>
      </trkpt>
      <trkpt lat="43.55024" lon="6.19008">
        <ele>356.4</ele>
        <time>2026-05-17T12:10:35.000Z</time>
      </trkpt>
      <trkpt lat="43.55015" lon="6.19006">
        <ele>357</ele>
        <time>2026-05-17T12:10:43.000Z</time>
      </trkpt>
      <trkpt lat="43.55005" lon="6.19006">
        <ele>357.5</ele>
        <time>2026-05-17T12:10:49.000Z</time>
      </trkpt>
      <trkpt lat="43.54997" lon="6.19001">
        <ele>358.2</ele>
        <time>2026-05-17T12:11:09.000Z</time>
      </trkpt>
      <trkpt lat="43.54988" lon="6.18996">
        <ele>358.6</ele>
        <time>2026-05-17T12:11:18.000Z</time>
      </trkpt>
      <trkpt lat="43.54979" lon="6.18991">
        <ele>358.9</ele>
        <time>2026-05-17T12:11:28.000Z</time>
      </trkpt>
      <trkpt lat="43.54971" lon="6.18985">
        <ele>358.9</ele>
        <time>2026-05-17T12:11:37.000Z</time>
      </trkpt>
      <trkpt lat="43.54962" lon="6.18979">
        <ele>359</ele>
        <time>2026-05-17T12:11:50.000Z</time>
      </trkpt>
      <trkpt lat="43.54954" lon="6.18975">
        <ele>359.2</ele>
        <time>2026-05-17T12:12:05.000Z</time>
      </trkpt>
      <trkpt lat="43.54944" lon="6.18976">
        <ele>359.4</ele>
        <time>2026-05-17T12:12:11.000Z</time>
      </trkpt>
      <trkpt lat="43.54935" lon="6.18979">
        <ele>359.9</ele>
        <time>2026-05-17T12:12:22.000Z</time>
      </trkpt>
      <trkpt lat="43.54926" lon="6.18982">
        <ele>361</ele>
        <time>2026-05-17T12:12:36.000Z</time>
      </trkpt>
      <trkpt lat="43.54917" lon="6.18976">
        <ele>361.8</ele>
        <time>2026-05-17T12:12:48.000Z</time>
      </trkpt>
      <trkpt lat="43.54908" lon="6.18976">
        <ele>362.7</ele>
        <time>2026-05-17T12:13:09.000Z</time>
      </trkpt>
      <trkpt lat="43.54899" lon="6.18977">
        <ele>363.4</ele>
        <time>2026-05-17T12:13:20.000Z</time>
      </trkpt>
      <trkpt lat="43.54888" lon="6.18978">
        <ele>364.3</ele>
        <time>2026-05-17T12:13:33.000Z</time>
      </trkpt>
      <trkpt lat="43.54879" lon="6.18977">
        <ele>365.2</ele>
        <time>2026-05-17T12:13:48.000Z</time>
      </trkpt>
      <trkpt lat="43.54871" lon="6.18974">
        <ele>365.9</ele>
        <time>2026-05-17T12:13:59.000Z</time>
      </trkpt>
      <trkpt lat="43.54864" lon="6.18965">
        <ele>366.6</ele>
        <time>2026-05-17T12:14:24.000Z</time>
      </trkpt>
      <trkpt lat="43.54862" lon="6.18953">
        <ele>367</ele>
        <time>2026-05-17T12:14:40.000Z</time>
      </trkpt>
      <trkpt lat="43.54862" lon="6.1894">
        <ele>367.9</ele>
        <time>2026-05-17T12:14:58.000Z</time>
      </trkpt>
      <trkpt lat="43.54863" lon="6.18927">
        <ele>368.5</ele>
        <time>2026-05-17T12:15:13.000Z</time>
      </trkpt>
      <trkpt lat="43.54867" lon="6.18915">
        <ele>369.2</ele>
        <time>2026-05-17T12:15:28.000Z</time>
      </trkpt>
      <trkpt lat="43.54871" lon="6.18903">
        <ele>369.6</ele>
        <time>2026-05-17T12:15:39.000Z</time>
      </trkpt>
      <trkpt lat="43.54872" lon="6.1889">
        <ele>370</ele>
        <time>2026-05-17T12:15:50.000Z</time>
      </trkpt>
      <trkpt lat="43.5487" lon="6.18878">
        <ele>370.4</ele>
        <time>2026-05-17T12:16:01.000Z</time>
      </trkpt>
      <trkpt lat="43.54868" lon="6.18866">
        <ele>371.1</ele>
        <time>2026-05-17T12:16:12.000Z</time>
      </trkpt>
      <trkpt lat="43.54869" lon="6.18853">
        <ele>371.7</ele>
        <time>2026-05-17T12:16:24.000Z</time>
      </trkpt>
      <trkpt lat="43.54868" lon="6.1884">
        <ele>372.4</ele>
        <time>2026-05-17T12:16:40.000Z</time>
      </trkpt>
      <trkpt lat="43.54864" lon="6.18828">
        <ele>373.2</ele>
        <time>2026-05-17T12:16:50.000Z</time>
      </trkpt>
      <trkpt lat="43.54862" lon="6.18815">
        <ele>374.1</ele>
        <time>2026-05-17T12:17:01.000Z</time>
      </trkpt>
      <trkpt lat="43.54858" lon="6.18804">
        <ele>375.3</ele>
        <time>2026-05-17T12:17:17.000Z</time>
      </trkpt>
      <trkpt lat="43.54854" lon="6.18792">
        <ele>376.3</ele>
        <time>2026-05-17T12:17:35.000Z</time>
      </trkpt>
      <trkpt lat="43.54851" lon="6.1878">
        <ele>376.6</ele>
        <time>2026-05-17T12:17:46.000Z</time>
      </trkpt>
      <trkpt lat="43.54848" lon="6.18768">
        <ele>377.3</ele>
        <time>2026-05-17T12:18:00.000Z</time>
      </trkpt>
      <trkpt lat="43.54847" lon="6.18755">
        <ele>378.2</ele>
        <time>2026-05-17T12:18:15.000Z</time>
      </trkpt>
      <trkpt lat="43.54848" lon="6.18743">
        <ele>379.4</ele>
        <time>2026-05-17T12:18:29.000Z</time>
      </trkpt>
      <trkpt lat="43.54851" lon="6.18731">
        <ele>381.3</ele>
        <time>2026-05-17T12:18:49.000Z</time>
      </trkpt>
      <trkpt lat="43.54857" lon="6.1872">
        <ele>382.3</ele>
        <time>2026-05-17T12:19:12.000Z</time>
      </trkpt>
      <trkpt lat="43.54857" lon="6.1872">
        <ele>382.8</ele>
        <time>2026-05-17T12:19:25.000Z</time>
      </trkpt>
      <trkpt lat="43.54856" lon="6.18715">
        <ele>382.8</ele>
        <time>2026-05-17T12:19:30.000Z</time>
      </trkpt>
      <trkpt lat="43.54855" lon="6.18714">
        <ele>382.9</ele>
        <time>2026-05-17T12:19:45.000Z</time>
      </trkpt>
      <trkpt lat="43.54854" lon="6.18708">
        <ele>383.6</ele>
        <time>2026-05-17T12:20:38.000Z</time>
      </trkpt>
      <trkpt lat="43.54854" lon="6.18708">
        <ele>383.6</ele>
        <time>2026-05-17T12:20:48.000Z</time>
      </trkpt>
      <trkpt lat="43.54854" lon="6.18707">
        <ele>383.5</ele>
        <time>2026-05-17T12:21:15.000Z</time>
      </trkpt>
      <trkpt lat="43.54854" lon="6.18707">
        <ele>383.3</ele>
        <time>2026-05-17T12:21:27.000Z</time>
      </trkpt>
      <trkpt lat="43.54853" lon="6.18705">
        <ele>383.7</ele>
        <time>2026-05-17T12:22:40.000Z</time>
      </trkpt>
      <trkpt lat="43.54853" lon="6.18705">
        <ele>383.5</ele>
        <time>2026-05-17T12:22:52.000Z</time>
      </trkpt>
      <trkpt lat="43.54851" lon="6.18706">
        <ele>383.3</ele>
        <time>2026-05-17T12:24:18.000Z</time>
      </trkpt>
      <trkpt lat="43.54851" lon="6.18704">
        <ele>383.3</ele>
        <time>2026-05-17T12:24:25.000Z</time>
      </trkpt>
      <trkpt lat="43.54851" lon="6.18702">
        <ele>383.2</ele>
        <time>2026-05-17T12:27:24.000Z</time>
      </trkpt>
      <trkpt lat="43.54842" lon="6.18701">
        <ele>383.6</ele>
        <time>2026-05-17T12:27:54.000Z</time>
      </trkpt>
      <trkpt lat="43.54833" lon="6.18704">
        <ele>384.4</ele>
        <time>2026-05-17T12:28:10.000Z</time>
      </trkpt>
      <trkpt lat="43.54824" lon="6.18705">
        <ele>384.5</ele>
        <time>2026-05-17T12:28:27.000Z</time>
      </trkpt>
      <trkpt lat="43.54815" lon="6.18708">
        <ele>384.3</ele>
        <time>2026-05-17T12:28:39.000Z</time>
      </trkpt>
      <trkpt lat="43.54806" lon="6.18709">
        <ele>384.3</ele>
        <time>2026-05-17T12:28:52.000Z</time>
      </trkpt>
      <trkpt lat="43.54797" lon="6.18711">
        <ele>384.2</ele>
        <time>2026-05-17T12:29:02.000Z</time>
      </trkpt>
      <trkpt lat="43.54787" lon="6.18713">
        <ele>384.2</ele>
        <time>2026-05-17T12:29:13.000Z</time>
      </trkpt>
      <trkpt lat="43.54778" lon="6.18716">
        <ele>384.1</ele>
        <time>2026-05-17T12:29:26.000Z</time>
      </trkpt>
      <trkpt lat="43.54771" lon="6.18717">
        <ele>384.1</ele>
        <time>2026-05-17T12:29:50.000Z</time>
      </trkpt>
      <trkpt lat="43.54772" lon="6.18716">
        <ele>384.1</ele>
        <time>2026-05-17T12:29:54.000Z</time>
      </trkpt>
      <trkpt lat="43.54774" lon="6.18716">
        <ele>384</ele>
        <time>2026-05-17T12:30:26.000Z</time>
      </trkpt>
      <trkpt lat="43.5477" lon="6.18717">
        <ele>384</ele>
        <time>2026-05-17T12:30:53.000Z</time>
      </trkpt>
      <trkpt lat="43.54761" lon="6.18718">
        <ele>384</ele>
        <time>2026-05-17T12:31:01.000Z</time>
      </trkpt>
      <trkpt lat="43.5475" lon="6.18718">
        <ele>384.1</ele>
        <time>2026-05-17T12:31:09.000Z</time>
      </trkpt>
      <trkpt lat="43.54741" lon="6.18719">
        <ele>384.1</ele>
        <time>2026-05-17T12:31:17.000Z</time>
      </trkpt>
      <trkpt lat="43.54731" lon="6.18719">
        <ele>383.9</ele>
        <time>2026-05-17T12:31:26.000Z</time>
      </trkpt>
      <trkpt lat="43.54721" lon="6.18719">
        <ele>383.7</ele>
        <time>2026-05-17T12:31:34.000Z</time>
      </trkpt>
      <trkpt lat="43.54712" lon="6.18721">
        <ele>383</ele>
        <time>2026-05-17T12:31:44.000Z</time>
      </trkpt>
      <trkpt lat="43.54702" lon="6.18723">
        <ele>382.3</ele>
        <time>2026-05-17T12:31:53.000Z</time>
      </trkpt>
      <trkpt lat="43.54692" lon="6.18725">
        <ele>381.5</ele>
        <time>2026-05-17T12:32:03.000Z</time>
      </trkpt>
      <trkpt lat="43.54683" lon="6.18726">
        <ele>380.8</ele>
        <time>2026-05-17T12:32:12.000Z</time>
      </trkpt>
      <trkpt lat="43.54673" lon="6.18727">
        <ele>380.1</ele>
        <time>2026-05-17T12:32:20.000Z</time>
      </trkpt>
      <trkpt lat="43.54664" lon="6.18728">
        <ele>379.3</ele>
        <time>2026-05-17T12:32:30.000Z</time>
      </trkpt>
      <trkpt lat="43.54654" lon="6.1873">
        <ele>378.9</ele>
        <time>2026-05-17T12:32:39.000Z</time>
      </trkpt>
      <trkpt lat="43.54644" lon="6.18731">
        <ele>378.6</ele>
        <time>2026-05-17T12:32:48.000Z</time>
      </trkpt>
      <trkpt lat="43.54634" lon="6.18731">
        <ele>378.4</ele>
        <time>2026-05-17T12:32:57.000Z</time>
      </trkpt>
      <trkpt lat="43.54624" lon="6.18731">
        <ele>378.2</ele>
        <time>2026-05-17T12:33:05.000Z</time>
      </trkpt>
      <trkpt lat="43.54615" lon="6.18733">
        <ele>378.1</ele>
        <time>2026-05-17T12:33:15.000Z</time>
      </trkpt>
      <trkpt lat="43.54605" lon="6.18736">
        <ele>378</ele>
        <time>2026-05-17T12:33:24.000Z</time>
      </trkpt>
      <trkpt lat="43.54595" lon="6.18737">
        <ele>378</ele>
        <time>2026-05-17T12:33:33.000Z</time>
      </trkpt>
      <trkpt lat="43.54586" lon="6.18736">
        <ele>378</ele>
        <time>2026-05-17T12:33:41.000Z</time>
      </trkpt>
      <trkpt lat="43.54577" lon="6.18737">
        <ele>377.9</ele>
        <time>2026-05-17T12:33:50.000Z</time>
      </trkpt>
      <trkpt lat="43.54568" lon="6.1874">
        <ele>377.7</ele>
        <time>2026-05-17T12:33:58.000Z</time>
      </trkpt>
      <trkpt lat="43.54558" lon="6.18739">
        <ele>377.2</ele>
        <time>2026-05-17T12:34:07.000Z</time>
      </trkpt>
      <trkpt lat="43.54549" lon="6.1874">
        <ele>376.6</ele>
        <time>2026-05-17T12:34:14.000Z</time>
      </trkpt>
      <trkpt lat="43.54539" lon="6.18743">
        <ele>376</ele>
        <time>2026-05-17T12:34:23.000Z</time>
      </trkpt>
      <trkpt lat="43.5453" lon="6.18747">
        <ele>375.6</ele>
        <time>2026-05-17T12:34:33.000Z</time>
      </trkpt>
      <trkpt lat="43.54521" lon="6.18751">
        <ele>375.4</ele>
        <time>2026-05-17T12:34:42.000Z</time>
      </trkpt>
      <trkpt lat="43.54512" lon="6.18754">
        <ele>375.4</ele>
        <time>2026-05-17T12:34:50.000Z</time>
      </trkpt>
      <trkpt lat="43.54503" lon="6.18758">
        <ele>375.3</ele>
        <time>2026-05-17T12:34:58.000Z</time>
      </trkpt>
      <trkpt lat="43.54494" lon="6.18761">
        <ele>375.1</ele>
        <time>2026-05-17T12:35:08.000Z</time>
      </trkpt>
      <trkpt lat="43.54496" lon="6.18769">
        <ele>375</ele>
        <time>2026-05-17T12:35:45.000Z</time>
      </trkpt>
      <trkpt lat="43.54493" lon="6.18768">
        <ele>375</ele>
        <time>2026-05-17T12:35:55.000Z</time>
      </trkpt>
      <trkpt lat="43.54484" lon="6.18773">
        <ele>374.6</ele>
        <time>2026-05-17T12:36:08.000Z</time>
      </trkpt>
      <trkpt lat="43.54477" lon="6.1878">
        <ele>373.9</ele>
        <time>2026-05-17T12:36:18.000Z</time>
      </trkpt>
      <trkpt lat="43.54468" lon="6.18784">
        <ele>373.2</ele>
        <time>2026-05-17T12:36:32.000Z</time>
      </trkpt>
      <trkpt lat="43.54461" lon="6.18792">
        <ele>372.9</ele>
        <time>2026-05-17T12:36:43.000Z</time>
      </trkpt>
      <trkpt lat="43.54453" lon="6.18799">
        <ele>372.6</ele>
        <time>2026-05-17T12:36:56.000Z</time>
      </trkpt>
      <trkpt lat="43.54444" lon="6.18805">
        <ele>372.4</ele>
        <time>2026-05-17T12:37:04.000Z</time>
      </trkpt>
      <trkpt lat="43.54435" lon="6.18811">
        <ele>372.3</ele>
        <time>2026-05-17T12:37:12.000Z</time>
      </trkpt>
      <trkpt lat="43.54427" lon="6.18817">
        <ele>372.3</ele>
        <time>2026-05-17T12:37:21.000Z</time>
      </trkpt>
      <trkpt lat="43.54419" lon="6.18824">
        <ele>372.3</ele>
        <time>2026-05-17T12:37:29.000Z</time>
      </trkpt>
      <trkpt lat="43.5441" lon="6.1883">
        <ele>372.3</ele>
        <time>2026-05-17T12:37:37.000Z</time>
      </trkpt>
      <trkpt lat="43.54402" lon="6.18836">
        <ele>372.2</ele>
        <time>2026-05-17T12:37:44.000Z</time>
      </trkpt>
      <trkpt lat="43.54392" lon="6.18841">
        <ele>372.3</ele>
        <time>2026-05-17T12:37:53.000Z</time>
      </trkpt>
      <trkpt lat="43.54383" lon="6.18846">
        <ele>372.2</ele>
        <time>2026-05-17T12:38:01.000Z</time>
      </trkpt>
      <trkpt lat="43.54374" lon="6.18853">
        <ele>372.3</ele>
        <time>2026-05-17T12:38:11.000Z</time>
      </trkpt>
      <trkpt lat="43.54366" lon="6.1886">
        <ele>372.5</ele>
        <time>2026-05-17T12:38:20.000Z</time>
      </trkpt>
      <trkpt lat="43.54357" lon="6.18865">
        <ele>373</ele>
        <time>2026-05-17T12:38:29.000Z</time>
      </trkpt>
      <trkpt lat="43.54349" lon="6.18872">
        <ele>373.4</ele>
        <time>2026-05-17T12:38:37.000Z</time>
      </trkpt>
      <trkpt lat="43.54342" lon="6.18879">
        <ele>373.6</ele>
        <time>2026-05-17T12:38:45.000Z</time>
      </trkpt>
      <trkpt lat="43.54333" lon="6.18883">
        <ele>373.8</ele>
        <time>2026-05-17T12:38:56.000Z</time>
      </trkpt>
      <trkpt lat="43.54323" lon="6.18889">
        <ele>373.8</ele>
        <time>2026-05-17T12:39:05.000Z</time>
      </trkpt>
      <trkpt lat="43.54315" lon="6.18898">
        <ele>374</ele>
        <time>2026-05-17T12:39:15.000Z</time>
      </trkpt>
      <trkpt lat="43.54307" lon="6.18906">
        <ele>374.3</ele>
        <time>2026-05-17T12:39:24.000Z</time>
      </trkpt>
      <trkpt lat="43.54299" lon="6.18912">
        <ele>374.4</ele>
        <time>2026-05-17T12:39:35.000Z</time>
      </trkpt>
      <trkpt lat="43.5429" lon="6.18916">
        <ele>374.4</ele>
        <time>2026-05-17T12:39:46.000Z</time>
      </trkpt>
      <trkpt lat="43.54281" lon="6.18922">
        <ele>374.5</ele>
        <time>2026-05-17T12:39:55.000Z</time>
      </trkpt>
      <trkpt lat="43.54273" lon="6.18931">
        <ele>374.5</ele>
        <time>2026-05-17T12:40:03.000Z</time>
      </trkpt>
      <trkpt lat="43.54264" lon="6.18937">
        <ele>374.6</ele>
        <time>2026-05-17T12:40:12.000Z</time>
      </trkpt>
      <trkpt lat="43.54256" lon="6.18944">
        <ele>374.7</ele>
        <time>2026-05-17T12:40:22.000Z</time>
      </trkpt>
      <trkpt lat="43.54248" lon="6.18949">
        <ele>374.7</ele>
        <time>2026-05-17T12:40:31.000Z</time>
      </trkpt>
      <trkpt lat="43.5424" lon="6.18956">
        <ele>374.9</ele>
        <time>2026-05-17T12:40:40.000Z</time>
      </trkpt>
      <trkpt lat="43.54231" lon="6.18961">
        <ele>375</ele>
        <time>2026-05-17T12:40:49.000Z</time>
      </trkpt>
      <trkpt lat="43.54223" lon="6.18966">
        <ele>375.2</ele>
        <time>2026-05-17T12:40:59.000Z</time>
      </trkpt>
      <trkpt lat="43.54214" lon="6.1897">
        <ele>375.4</ele>
        <time>2026-05-17T12:41:09.000Z</time>
      </trkpt>
      <trkpt lat="43.5421" lon="6.18973">
        <ele>375.4</ele>
        <time>2026-05-17T12:41:29.000Z</time>
      </trkpt>
      <trkpt lat="43.54207" lon="6.18975">
        <ele>375.4</ele>
        <time>2026-05-17T12:41:36.000Z</time>
      </trkpt>
      <trkpt lat="43.54199" lon="6.18981">
        <ele>375.4</ele>
        <time>2026-05-17T12:41:44.000Z</time>
      </trkpt>
      <trkpt lat="43.54191" lon="6.18987">
        <ele>375.3</ele>
        <time>2026-05-17T12:41:52.000Z</time>
      </trkpt>
      <trkpt lat="43.54182" lon="6.18992">
        <ele>375.2</ele>
        <time>2026-05-17T12:42:00.000Z</time>
      </trkpt>
      <trkpt lat="43.54174" lon="6.19">
        <ele>374.9</ele>
        <time>2026-05-17T12:42:10.000Z</time>
      </trkpt>
      <trkpt lat="43.54166" lon="6.19006">
        <ele>374.3</ele>
        <time>2026-05-17T12:42:20.000Z</time>
      </trkpt>
      <trkpt lat="43.54159" lon="6.19014">
        <ele>373.9</ele>
        <time>2026-05-17T12:42:27.000Z</time>
      </trkpt>
      <trkpt lat="43.54151" lon="6.19021">
        <ele>373.2</ele>
        <time>2026-05-17T12:42:36.000Z</time>
      </trkpt>
      <trkpt lat="43.54144" lon="6.1903">
        <ele>372.2</ele>
        <time>2026-05-17T12:42:45.000Z</time>
      </trkpt>
      <trkpt lat="43.54137" lon="6.19036">
        <ele>371.7</ele>
        <time>2026-05-17T12:42:54.000Z</time>
      </trkpt>
      <trkpt lat="43.54129" lon="6.19043">
        <ele>371.1</ele>
        <time>2026-05-17T12:43:03.000Z</time>
      </trkpt>
      <trkpt lat="43.54124" lon="6.19054">
        <ele>370.3</ele>
        <time>2026-05-17T12:43:15.000Z</time>
      </trkpt>
      <trkpt lat="43.54116" lon="6.1906">
        <ele>369.8</ele>
        <time>2026-05-17T12:43:32.000Z</time>
      </trkpt>
      <trkpt lat="43.54107" lon="6.19066">
        <ele>369.5</ele>
        <time>2026-05-17T12:43:43.000Z</time>
      </trkpt>
      <trkpt lat="43.54099" lon="6.19075">
        <ele>369.1</ele>
        <time>2026-05-17T12:43:52.000Z</time>
      </trkpt>
      <trkpt lat="43.54091" lon="6.19081">
        <ele>368.8</ele>
        <time>2026-05-17T12:43:58.000Z</time>
      </trkpt>
      <trkpt lat="43.54082" lon="6.19086">
        <ele>368.4</ele>
        <time>2026-05-17T12:44:08.000Z</time>
      </trkpt>
      <trkpt lat="43.54076" lon="6.19095">
        <ele>367.7</ele>
        <time>2026-05-17T12:44:22.000Z</time>
      </trkpt>
      <trkpt lat="43.5407" lon="6.19106">
        <ele>367.4</ele>
        <time>2026-05-17T12:44:33.000Z</time>
      </trkpt>
      <trkpt lat="43.54062" lon="6.19112">
        <ele>367.3</ele>
        <time>2026-05-17T12:44:42.000Z</time>
      </trkpt>
      <trkpt lat="43.54054" lon="6.1912">
        <ele>367.1</ele>
        <time>2026-05-17T12:44:50.000Z</time>
      </trkpt>
      <trkpt lat="43.54046" lon="6.19126">
        <ele>366.7</ele>
        <time>2026-05-17T12:45:03.000Z</time>
      </trkpt>
      <trkpt lat="43.54045" lon="6.19138">
        <ele>366.8</ele>
        <time>2026-05-17T12:45:40.000Z</time>
      </trkpt>
      <trkpt lat="43.54042" lon="6.19141">
        <ele>366.8</ele>
        <time>2026-05-17T12:45:49.000Z</time>
      </trkpt>
      <trkpt lat="43.54034" lon="6.19147">
        <ele>366.8</ele>
        <time>2026-05-17T12:45:59.000Z</time>
      </trkpt>
      <trkpt lat="43.54032" lon="6.19155">
        <ele>366.5</ele>
        <time>2026-05-17T12:46:40.000Z</time>
      </trkpt>
      <trkpt lat="43.54034" lon="6.19156">
        <ele>366.5</ele>
        <time>2026-05-17T12:46:59.000Z</time>
      </trkpt>
      <trkpt lat="43.54034" lon="6.19155">
        <ele>366.4</ele>
        <time>2026-05-17T12:47:10.000Z</time>
      </trkpt>
      <trkpt lat="43.54034" lon="6.19154">
        <ele>366.4</ele>
        <time>2026-05-17T12:47:35.000Z</time>
      </trkpt>
      <trkpt lat="43.54032" lon="6.19155">
        <ele>366.4</ele>
        <time>2026-05-17T12:47:46.000Z</time>
      </trkpt>
      <trkpt lat="43.54031" lon="6.19153">
        <ele>366.5</ele>
        <time>2026-05-17T12:48:03.000Z</time>
      </trkpt>
      <trkpt lat="43.54029" lon="6.19152">
        <ele>366.6</ele>
        <time>2026-05-17T12:48:29.000Z</time>
      </trkpt>
      <trkpt lat="43.54029" lon="6.19151">
        <ele>366.6</ele>
        <time>2026-05-17T12:48:40.000Z</time>
      </trkpt>
      <trkpt lat="43.54029" lon="6.1915">
        <ele>367.1</ele>
        <time>2026-05-17T12:49:07.000Z</time>
      </trkpt>
      <trkpt lat="43.54029" lon="6.1915">
        <ele>366.9</ele>
        <time>2026-05-17T12:49:30.000Z</time>
      </trkpt>
      <trkpt lat="43.54029" lon="6.19151">
        <ele>366.9</ele>
        <time>2026-05-17T12:50:03.000Z</time>
      </trkpt>
      <trkpt lat="43.54029" lon="6.19151">
        <ele>366.9</ele>
        <time>2026-05-17T12:50:04.000Z</time>
      </trkpt>
      <trkpt lat="43.54038" lon="6.19148">
        <ele>366.8</ele>
        <time>2026-05-17T12:50:59.000Z</time>
      </trkpt>
      <trkpt lat="43.54037" lon="6.19149">
        <ele>366.6</ele>
        <time>2026-05-17T12:51:24.000Z</time>
      </trkpt>
      <trkpt lat="43.54035" lon="6.19148">
        <ele>366.6</ele>
        <time>2026-05-17T12:51:45.000Z</time>
      </trkpt>
      <trkpt lat="43.54035" lon="6.19148">
        <ele>366.5</ele>
        <time>2026-05-17T12:51:55.000Z</time>
      </trkpt>
      <trkpt lat="43.54034" lon="6.19147">
        <ele>366.4</ele>
        <time>2026-05-17T12:52:02.000Z</time>
      </trkpt>
      <trkpt lat="43.54034" lon="6.1915">
        <ele>366.2</ele>
        <time>2026-05-17T12:52:23.000Z</time>
      </trkpt>
      <trkpt lat="43.54033" lon="6.19147">
        <ele>366.2</ele>
        <time>2026-05-17T12:52:43.000Z</time>
      </trkpt>
      <trkpt lat="43.54033" lon="6.19147">
        <ele>366.2</ele>
        <time>2026-05-17T12:52:55.000Z</time>
      </trkpt>
      <trkpt lat="43.54034" lon="6.19151">
        <ele>366.2</ele>
        <time>2026-05-17T12:53:36.000Z</time>
      </trkpt>
      <trkpt lat="43.54035" lon="6.19149">
        <ele>366.3</ele>
        <time>2026-05-17T12:53:45.099Z</time>
      </trkpt>
      <trkpt lat="43.54035" lon="6.19149">
        <ele>366.3</ele>
        <time>2026-05-17T12:53:45.099Z</time>
      </trkpt>
    </trkseg>
  </trk>
</gpx>